BAW99 EGLL-CYYZ
Flight info
| Callsign | BAW99 |
|---|---|
| Flight time | 7h 26m |
| Altitude | 36000 |
| Route | CPT L9 BUCGO DCT FELCA DCT OFSOX DCT BANBA DCT TOBOR/M085F380 NATC ELSIR/N0478F380 N412A MIILS/N0486F400 DCT LETAK IMEBA9 |
| Aircraft | A35K/H-SDE2E3GHIJ3J4J5LM1ORWXY/LB1D1 |
Departure
| Time | 2026-05-06 12:02 |
|---|---|
| Airport | London Heathrow Airport (EGLL) |
Arrival
| Time | 2026-05-06 19:29 |
|---|---|
| Airport | Toronto Pearson International Airport (CYYZ) |
| Time | Latitude | Longitude | Altitude | Speed | Heading |
|---|---|---|---|---|---|
| 2026-05-06 11:08 | 51.47049 | -0.48242 | 93 ft | 0 kts | 90° |
| 2026-05-06 11:53 | 51.47049 | -0.48238 | 88 ft | 3 kts | 89° |
| 2026-05-06 11:53 | 51.47047 | -0.48280 | 91 ft | 4 kts | 84° |
| 2026-05-06 11:53 | 51.47047 | -0.48315 | 90 ft | 4 kts | 113° |
| 2026-05-06 11:54 | 51.47056 | -0.48341 | 91 ft | 4 kts | 137° |
| 2026-05-06 11:54 | 51.47073 | -0.48359 | 90 ft | 3 kts | 171° |
| 2026-05-06 11:54 | 51.47100 | -0.48361 | 88 ft | 3 kts | 181° |
| 2026-05-06 11:54 | 51.47097 | -0.48361 | 88 ft | 5 kts | 180° |
| 2026-05-06 11:55 | 51.47063 | -0.48361 | 91 ft | 5 kts | 180° |
| 2026-05-06 11:55 | 51.47043 | -0.48361 | 90 ft | 0 kts | 180° |
| 2026-05-06 11:57 | 51.47033 | -0.48361 | 90 ft | 3 kts | 180° |
| 2026-05-06 11:57 | 51.47005 | -0.48361 | 88 ft | 6 kts | 180° |
| 2026-05-06 11:57 | 51.46957 | -0.48360 | 91 ft | 8 kts | 179° |
| 2026-05-06 11:58 | 51.46895 | -0.48359 | 90 ft | 10 kts | 179° |
| 2026-05-06 11:58 | 51.46849 | -0.48358 | 90 ft | 0 kts | 179° |
| 2026-05-06 11:58 | 51.46845 | -0.48358 | 91 ft | 2 kts | 179° |
| 2026-05-06 11:58 | 51.46827 | -0.48358 | 91 ft | 4 kts | 179° |
| 2026-05-06 11:59 | 51.46794 | -0.48357 | 91 ft | 6 kts | 180° |
| 2026-05-06 11:59 | 51.46757 | -0.48382 | 90 ft | 6 kts | 216° |
| 2026-05-06 11:59 | 51.46724 | -0.48447 | 92 ft | 10 kts | 224° |
| 2026-05-06 11:59 | 51.46656 | -0.48468 | 88 ft | 11 kts | 179° |
| 2026-05-06 12:00 | 51.46576 | -0.48469 | 89 ft | 12 kts | 180° |
| 2026-05-06 12:00 | 51.46504 | -0.48458 | 93 ft | 9 kts | 151° |
| 2026-05-06 12:00 | 51.46477 | -0.48373 | 93 ft | 8 kts | 87° |
| 2026-05-06 12:00 | 51.46480 | -0.48301 | 90 ft | 0 kts | 90° |
| 2026-05-06 12:01 | 51.46480 | -0.48298 | 90 ft | 1 kts | 90° |
| 2026-05-06 12:01 | 51.46479 | -0.48211 | 89 ft | 25 kts | 90° |
| 2026-05-06 12:01 | 51.46483 | -0.47559 | 89 ft | 90 kts | 90° |
| 2026-05-06 12:02 | 51.46486 | -0.46247 | 92 ft | 143 kts | 89° |
| 2026-05-06 12:02 | 51.46456 | -0.44475 | 454 ft | 159 kts | 91° |
| 2026-05-06 12:02 | 51.46368 | -0.42750 | 1261 ft | 155 kts | 90° |
| 2026-05-06 12:02 | 51.46285 | -0.40926 | 1674 ft | 175 kts | 90° |
| 2026-05-06 12:03 | 51.46190 | -0.38851 | 2130 ft | 193 kts | 90° |
| 2026-05-06 12:03 | 51.45881 | -0.36633 | 2538 ft | 216 kts | 115° |
| 2026-05-06 12:03 | 51.44720 | -0.35065 | 3056 ft | 229 kts | 158° |
| 2026-05-06 12:03 | 51.43130 | -0.35036 | 3651 ft | 233 kts | 200° |
| 2026-05-06 12:04 | 51.41751 | -0.36368 | 4245 ft | 233 kts | 221° |
| 2026-05-06 12:04 | 51.40607 | -0.38219 | 4806 ft | 235 kts | 235° |
| 2026-05-06 12:04 | 51.39824 | -0.40552 | 5173 ft | 246 kts | 256° |
| 2026-05-06 12:04 | 51.39702 | -0.43311 | 5605 ft | 252 kts | 283° |
| 2026-05-06 12:05 | 51.40072 | -0.46068 | 6412 ft | 254 kts | 287° |
| 2026-05-06 12:05 | 51.40467 | -0.48839 | 7175 ft | 258 kts | 285° |
| 2026-05-06 12:05 | 51.40848 | -0.51701 | 7910 ft | 262 kts | 285° |
| 2026-05-06 12:05 | 51.41211 | -0.54543 | 8676 ft | 266 kts | 284° |
| 2026-05-06 12:06 | 51.41579 | -0.57476 | 9457 ft | 270 kts | 283° |
| 2026-05-06 12:06 | 51.41949 | -0.60451 | 10208 ft | 275 kts | 283° |
| 2026-05-06 12:06 | 51.42333 | -0.63556 | 10646 ft | 292 kts | 283° |
| 2026-05-06 12:06 | 51.42739 | -0.66838 | 11038 ft | 310 kts | 283° |
| 2026-05-06 12:07 | 51.43168 | -0.70324 | 11467 ft | 326 kts | 282° |
| 2026-05-06 12:07 | 51.43620 | -0.74026 | 11902 ft | 342 kts | 282° |
| 2026-05-06 12:07 | 51.44085 | -0.77815 | 12468 ft | 351 kts | 282° |
| 2026-05-06 12:07 | 51.44558 | -0.81685 | 13135 ft | 357 kts | 282° |
| 2026-05-06 12:08 | 51.45036 | -0.85621 | 13840 ft | 362 kts | 282° |
| 2026-05-06 12:08 | 51.45519 | -0.89608 | 14468 ft | 366 kts | 281° |
| 2026-05-06 12:08 | 51.45987 | -0.93637 | 15108 ft | 370 kts | 281° |
| 2026-05-06 12:08 | 51.46293 | -0.96331 | 15537 ft | 372 kts | 281° |
| 2026-05-06 12:09 | 51.46919 | -1.01845 | 16419 ft | 377 kts | 281° |
| 2026-05-06 12:09 | 51.47394 | -1.05993 | 17092 ft | 380 kts | 281° |
| 2026-05-06 12:09 | 51.47867 | -1.10189 | 17765 ft | 384 kts | 280° |
| 2026-05-06 12:09 | 51.48338 | -1.14380 | 18427 ft | 388 kts | 280° |
| 2026-05-06 12:10 | 51.48935 | -1.18674 | 19017 ft | 392 kts | 287° |
| 2026-05-06 12:10 | 51.50064 | -1.22624 | 19618 ft | 396 kts | 302° |
| 2026-05-06 12:10 | 51.51799 | -1.26089 | 20223 ft | 401 kts | 312° |
| 2026-05-06 12:10 | 51.53771 | -1.29282 | 20831 ft | 405 kts | 315° |
| 2026-05-06 12:11 | 51.55843 | -1.32372 | 21429 ft | 409 kts | 316° |
| 2026-05-06 12:11 | 51.57966 | -1.35453 | 22023 ft | 413 kts | 316° |
| 2026-05-06 12:11 | 51.60016 | -1.38732 | 22602 ft | 416 kts | 309° |
| 2026-05-06 12:11 | 51.61715 | -1.42501 | 23205 ft | 418 kts | 301° |
| 2026-05-06 12:12 | 51.63219 | -1.46521 | 23774 ft | 421 kts | 298° |
| 2026-05-06 12:12 | 51.64640 | -1.50647 | 24262 ft | 424 kts | 297° |
| 2026-05-06 12:12 | 51.66033 | -1.54864 | 24773 ft | 428 kts | 297° |
| 2026-05-06 12:12 | 51.67420 | -1.59132 | 25268 ft | 431 kts | 297° |
| 2026-05-06 12:13 | 51.68803 | -1.63415 | 25760 ft | 434 kts | 296° |
| 2026-05-06 12:13 | 51.69979 | -1.67925 | 26235 ft | 436 kts | 288° |
| 2026-05-06 12:13 | 51.70709 | -1.72667 | 26718 ft | 438 kts | 279° |
| 2026-05-06 12:13 | 51.71182 | -1.77547 | 27203 ft | 442 kts | 277° |
| 2026-05-06 12:14 | 51.71569 | -1.82464 | 27702 ft | 444 kts | 276° |
| 2026-05-06 12:14 | 51.71917 | -1.87434 | 28146 ft | 448 kts | 276° |
| 2026-05-06 12:14 | 51.72252 | -1.92430 | 28598 ft | 451 kts | 276° |
| 2026-05-06 12:14 | 51.72590 | -1.97493 | 29050 ft | 454 kts | 276° |
| 2026-05-06 12:15 | 51.72934 | -2.02570 | 29484 ft | 457 kts | 276° |
| 2026-05-06 12:15 | 51.73284 | -2.07686 | 29930 ft | 460 kts | 276° |
| 2026-05-06 12:15 | 51.73640 | -2.12842 | 30279 ft | 463 kts | 276° |
| 2026-05-06 12:15 | 51.74003 | -2.18014 | 30639 ft | 465 kts | 276° |
| 2026-05-06 12:16 | 51.74363 | -2.23222 | 31004 ft | 468 kts | 276° |
| 2026-05-06 12:16 | 51.74719 | -2.28430 | 31344 ft | 469 kts | 276° |
| 2026-05-06 12:16 | 51.75074 | -2.33666 | 31818 ft | 468 kts | 276° |
| 2026-05-06 12:16 | 51.75425 | -2.38880 | 32315 ft | 466 kts | 276° |
| 2026-05-06 12:17 | 51.75771 | -2.44057 | 32787 ft | 464 kts | 276° |
| 2026-05-06 12:17 | 51.76116 | -2.49237 | 33234 ft | 463 kts | 276° |
| 2026-05-06 12:17 | 51.76458 | -2.54384 | 33690 ft | 461 kts | 276° |
| 2026-05-06 12:17 | 51.76802 | -2.59538 | 34113 ft | 460 kts | 276° |
| 2026-05-06 12:18 | 51.77140 | -2.64662 | 34452 ft | 459 kts | 276° |
| 2026-05-06 12:18 | 51.77474 | -2.69789 | 34722 ft | 460 kts | 276° |
| 2026-05-06 12:18 | 51.77803 | -2.74939 | 35005 ft | 460 kts | 275° |
| 2026-05-06 12:18 | 51.78127 | -2.80069 | 35272 ft | 461 kts | 276° |
| 2026-05-06 12:19 | 51.78451 | -2.85233 | 35545 ft | 461 kts | 275° |
| 2026-05-06 12:19 | 51.78773 | -2.90366 | 35798 ft | 461 kts | 275° |
| 2026-05-06 12:19 | 51.79095 | -2.95531 | 36006 ft | 463 kts | 275° |
| 2026-05-06 12:19 | 51.79418 | -3.00725 | 36052 ft | 468 kts | 275° |
| 2026-05-06 12:20 | 51.80064 | -3.11244 | 36048 ft | 470 kts | 275° |
| 2026-05-06 12:20 | 51.80699 | -3.21737 | 36042 ft | 469 kts | 275° |
| 2026-05-06 12:21 | 51.81322 | -3.32224 | 36036 ft | 469 kts | 275° |
| 2026-05-06 12:21 | 51.81937 | -3.42708 | 36031 ft | 468 kts | 275° |
| 2026-05-06 12:22 | 51.82595 | -3.53186 | 36024 ft | 469 kts | 279° |
| 2026-05-06 12:22 | 51.83819 | -3.63542 | 36024 ft | 469 kts | 281° |
| 2026-05-06 12:23 | 51.85155 | -3.73863 | 36022 ft | 469 kts | 282° |
| 2026-05-06 12:23 | 51.86493 | -3.84155 | 36020 ft | 469 kts | 281° |
| 2026-05-06 12:24 | 51.87819 | -3.94494 | 36022 ft | 468 kts | 281° |
| 2026-05-06 12:24 | 51.89127 | -4.04827 | 36020 ft | 468 kts | 281° |
| 2026-05-06 12:25 | 51.90425 | -4.15169 | 36023 ft | 468 kts | 281° |
| 2026-05-06 12:25 | 51.91495 | -4.23759 | 36023 ft | 468 kts | 281° |
| 2026-05-06 12:26 | 51.92778 | -4.34109 | 36023 ft | 468 kts | 281° |
| 2026-05-06 12:26 | 51.94047 | -4.44443 | 36024 ft | 468 kts | 281° |
| 2026-05-06 12:27 | 51.95308 | -4.54794 | 36023 ft | 468 kts | 281° |
| 2026-05-06 12:27 | 51.96560 | -4.65147 | 36026 ft | 468 kts | 281° |
| 2026-05-06 12:28 | 51.97800 | -4.75478 | 36025 ft | 467 kts | 281° |
| 2026-05-06 12:28 | 51.99036 | -4.85840 | 36026 ft | 467 kts | 281° |
| 2026-05-06 12:29 | 52.00259 | -4.96182 | 36027 ft | 467 kts | 281° |
| 2026-05-06 12:29 | 52.01470 | -5.06522 | 36029 ft | 466 kts | 281° |
| 2026-05-06 12:30 | 52.02580 | -5.16892 | 36033 ft | 466 kts | 275° |
| 2026-05-06 12:30 | 52.02451 | -5.27389 | 36031 ft | 466 kts | 265° |
| 2026-05-06 12:31 | 52.01764 | -5.37796 | 36032 ft | 466 kts | 264° |
| 2026-05-06 12:31 | 52.00990 | -5.48308 | 36030 ft | 466 kts | 264° |
| 2026-05-06 12:32 | 52.00223 | -5.58747 | 36032 ft | 466 kts | 264° |
| 2026-05-06 12:32 | 51.99458 | -5.69188 | 36034 ft | 466 kts | 264° |
| 2026-05-06 12:33 | 51.98689 | -5.79648 | 36036 ft | 466 kts | 264° |
| 2026-05-06 12:33 | 51.97913 | -5.90104 | 36038 ft | 466 kts | 264° |
| 2026-05-06 12:34 | 51.97135 | -6.00467 | 36042 ft | 466 kts | 264° |
| 2026-05-06 12:34 | 51.96342 | -6.10896 | 36038 ft | 466 kts | 264° |
| 2026-05-06 12:35 | 51.95628 | -6.21342 | 36041 ft | 466 kts | 268° |
| 2026-05-06 12:35 | 51.96109 | -6.31809 | 36039 ft | 466 kts | 278° |
| 2026-05-06 12:36 | 51.97108 | -6.42190 | 36040 ft | 467 kts | 279° |
| 2026-05-06 12:36 | 51.98167 | -6.52581 | 36042 ft | 467 kts | 279° |
| 2026-05-06 12:37 | 51.99202 | -6.62980 | 36038 ft | 467 kts | 279° |
| 2026-05-06 12:37 | 52.00214 | -6.73411 | 36040 ft | 467 kts | 279° |
| 2026-05-06 12:38 | 52.01214 | -6.83834 | 36042 ft | 468 kts | 279° |
| 2026-05-06 12:38 | 52.02205 | -6.94272 | 36046 ft | 468 kts | 279° |
| 2026-05-06 12:39 | 52.03186 | -7.04722 | 36043 ft | 468 kts | 279° |
| 2026-05-06 12:39 | 52.04157 | -7.15180 | 36044 ft | 468 kts | 279° |
| 2026-05-06 12:40 | 52.05122 | -7.25659 | 36043 ft | 469 kts | 279° |
| 2026-05-06 12:40 | 52.06080 | -7.36149 | 36038 ft | 469 kts | 279° |
| 2026-05-06 12:41 | 52.07026 | -7.46639 | 36033 ft | 470 kts | 279° |
| 2026-05-06 12:41 | 52.07964 | -7.57154 | 36028 ft | 470 kts | 279° |
| 2026-05-06 12:42 | 52.08894 | -7.67684 | 36020 ft | 470 kts | 279° |
| 2026-05-06 12:42 | 52.09816 | -7.78219 | 36017 ft | 471 kts | 279° |
| 2026-05-06 12:43 | 52.10729 | -7.88767 | 36018 ft | 471 kts | 279° |
| 2026-05-06 12:43 | 52.11634 | -7.99322 | 36013 ft | 471 kts | 279° |
| 2026-05-06 12:44 | 52.12527 | -8.09892 | 36011 ft | 472 kts | 279° |
| 2026-05-06 12:44 | 52.13408 | -8.20420 | 36010 ft | 472 kts | 278° |
| 2026-05-06 12:45 | 52.14290 | -8.31072 | 36011 ft | 472 kts | 278° |
| 2026-05-06 12:46 | 52.15586 | -8.46943 | 36008 ft | 473 kts | 278° |
| 2026-05-06 12:46 | 52.16442 | -8.57572 | 36005 ft | 474 kts | 278° |
| 2026-05-06 12:47 | 52.17289 | -8.68236 | 36008 ft | 474 kts | 278° |
| 2026-05-06 12:47 | 52.18127 | -8.78897 | 36007 ft | 475 kts | 278° |
| 2026-05-06 12:48 | 52.18958 | -8.89580 | 36010 ft | 475 kts | 278° |
| 2026-05-06 12:48 | 52.19777 | -9.00273 | 36006 ft | 476 kts | 278° |
| 2026-05-06 12:49 | 52.20589 | -9.10985 | 36016 ft | 476 kts | 278° |
| 2026-05-06 12:49 | 52.21393 | -9.21706 | 36017 ft | 477 kts | 278° |
| 2026-05-06 12:50 | 52.22188 | -9.32452 | 36019 ft | 478 kts | 278° |
| 2026-05-06 12:50 | 52.22973 | -9.43226 | 36019 ft | 478 kts | 278° |
| 2026-05-06 12:51 | 52.23744 | -9.53902 | 36017 ft | 478 kts | 278° |
| 2026-05-06 12:51 | 52.24514 | -9.64704 | 36020 ft | 479 kts | 278° |
| 2026-05-06 12:52 | 52.25271 | -9.75497 | 36021 ft | 479 kts | 278° |
| 2026-05-06 12:52 | 52.26021 | -9.86333 | 36024 ft | 480 kts | 278° |
| 2026-05-06 12:53 | 52.26756 | -9.97090 | 36029 ft | 480 kts | 278° |
| 2026-05-06 12:53 | 52.27490 | -10.07996 | 36037 ft | 480 kts | 278° |
| 2026-05-06 12:54 | 52.28207 | -10.18781 | 36040 ft | 481 kts | 278° |
| 2026-05-06 12:54 | 52.28920 | -10.29637 | 36039 ft | 481 kts | 278° |
| 2026-05-06 12:55 | 52.29622 | -10.40504 | 36041 ft | 481 kts | 278° |
| 2026-05-06 12:55 | 52.30316 | -10.51420 | 36038 ft | 482 kts | 278° |
| 2026-05-06 12:56 | 52.30998 | -10.62309 | 36045 ft | 482 kts | 278° |
| 2026-05-06 12:56 | 52.31672 | -10.73206 | 36044 ft | 482 kts | 278° |
| 2026-05-06 12:57 | 52.32340 | -10.84132 | 36047 ft | 483 kts | 278° |
| 2026-05-06 12:57 | 52.32994 | -10.95047 | 36046 ft | 483 kts | 278° |
| 2026-05-06 12:58 | 52.33637 | -11.05988 | 36045 ft | 483 kts | 278° |
| 2026-05-06 12:58 | 52.34270 | -11.16917 | 36042 ft | 483 kts | 278° |
| 2026-05-06 12:59 | 52.34891 | -11.27794 | 36043 ft | 483 kts | 278° |
| 2026-05-06 12:59 | 52.35507 | -11.38727 | 36050 ft | 483 kts | 278° |
| 2026-05-06 13:00 | 52.36113 | -11.49663 | 36049 ft | 483 kts | 278° |
| 2026-05-06 13:00 | 52.36706 | -11.60600 | 36048 ft | 483 kts | 278° |
| 2026-05-06 13:01 | 52.37288 | -11.71556 | 36048 ft | 483 kts | 278° |
| 2026-05-06 13:01 | 52.37860 | -11.82495 | 36049 ft | 483 kts | 278° |
| 2026-05-06 13:02 | 52.38423 | -11.93436 | 36050 ft | 483 kts | 278° |
| 2026-05-06 13:02 | 52.38979 | -12.04397 | 36048 ft | 483 kts | 278° |
| 2026-05-06 13:03 | 52.39523 | -12.15342 | 36045 ft | 483 kts | 278° |
| 2026-05-06 13:03 | 52.40055 | -12.26289 | 36046 ft | 482 kts | 278° |
| 2026-05-06 13:04 | 52.40575 | -12.37236 | 36048 ft | 482 kts | 277° |
| 2026-05-06 13:04 | 52.41088 | -12.48199 | 36046 ft | 482 kts | 277° |
| 2026-05-06 13:05 | 52.41591 | -12.59141 | 36048 ft | 482 kts | 277° |
| 2026-05-06 13:05 | 52.42084 | -12.70078 | 36061 ft | 481 kts | 277° |
| 2026-05-06 13:06 | 52.42566 | -12.81030 | 36045 ft | 481 kts | 277° |
| 2026-05-06 13:06 | 52.43036 | -12.91963 | 36053 ft | 481 kts | 277° |
| 2026-05-06 13:07 | 52.43494 | -13.02899 | 36043 ft | 481 kts | 277° |
| 2026-05-06 13:07 | 52.43944 | -13.13829 | 36058 ft | 481 kts | 277° |
| 2026-05-06 13:08 | 52.44386 | -13.24775 | 36047 ft | 481 kts | 277° |
| 2026-05-06 13:08 | 52.44818 | -13.35702 | 36055 ft | 480 kts | 277° |
| 2026-05-06 13:09 | 52.45168 | -13.44791 | 36056 ft | 480 kts | 277° |
| 2026-05-06 13:09 | 52.45578 | -13.55716 | 36054 ft | 480 kts | 277° |
| 2026-05-06 13:10 | 52.45977 | -13.66658 | 36047 ft | 480 kts | 277° |
| 2026-05-06 13:10 | 52.46368 | -13.77595 | 36046 ft | 480 kts | 276° |
| 2026-05-06 13:11 | 52.46752 | -13.88596 | 36054 ft | 480 kts | 276° |
| 2026-05-06 13:11 | 52.47124 | -13.99510 | 36056 ft | 479 kts | 276° |
| 2026-05-06 13:12 | 52.47483 | -14.10422 | 36051 ft | 479 kts | 276° |
| 2026-05-06 13:12 | 52.47832 | -14.21348 | 36053 ft | 479 kts | 276° |
| 2026-05-06 13:13 | 52.48173 | -14.32254 | 36054 ft | 479 kts | 276° |
| 2026-05-06 13:13 | 52.48505 | -14.43156 | 36053 ft | 479 kts | 276° |
| 2026-05-06 13:14 | 52.48824 | -14.54075 | 36053 ft | 478 kts | 276° |
| 2026-05-06 13:14 | 52.49131 | -14.64975 | 36054 ft | 478 kts | 276° |
| 2026-05-06 13:15 | 52.49429 | -14.75876 | 36056 ft | 478 kts | 276° |
| 2026-05-06 13:15 | 52.49719 | -14.86775 | 36049 ft | 478 kts | 275° |
| 2026-05-06 13:16 | 52.50024 | -14.97684 | 36048 ft | 477 kts | 278° |
| 2026-05-06 13:16 | 52.51066 | -15.08380 | 36049 ft | 474 kts | 283° |
| 2026-05-06 13:17 | 52.52337 | -15.18995 | 36047 ft | 474 kts | 284° |
| 2026-05-06 13:17 | 52.53631 | -15.29606 | 36049 ft | 474 kts | 284° |
| 2026-05-06 13:18 | 52.54908 | -15.40244 | 36048 ft | 474 kts | 284° |
| 2026-05-06 13:18 | 52.56169 | -15.50885 | 36047 ft | 474 kts | 283° |
| 2026-05-06 13:19 | 52.57417 | -15.61509 | 36047 ft | 473 kts | 283° |
| 2026-05-06 13:19 | 52.58652 | -15.72136 | 36045 ft | 473 kts | 283° |
| 2026-05-06 13:20 | 52.59878 | -15.82784 | 36046 ft | 473 kts | 283° |
| 2026-05-06 13:20 | 52.61092 | -15.93411 | 36041 ft | 473 kts | 283° |
| 2026-05-06 13:21 | 52.62298 | -16.04041 | 36043 ft | 473 kts | 283° |
| 2026-05-06 13:21 | 52.63495 | -16.14670 | 36043 ft | 472 kts | 283° |
| 2026-05-06 13:22 | 52.64683 | -16.25313 | 36044 ft | 472 kts | 283° |
| 2026-05-06 13:22 | 52.65858 | -16.35941 | 36041 ft | 472 kts | 282° |
| 2026-05-06 13:23 | 52.67021 | -16.46570 | 36039 ft | 472 kts | 282° |
| 2026-05-06 13:23 | 52.68178 | -16.57221 | 36042 ft | 472 kts | 282° |
| 2026-05-06 13:24 | 52.69323 | -16.67857 | 36038 ft | 471 kts | 282° |
| 2026-05-06 13:24 | 52.70461 | -16.78493 | 36040 ft | 471 kts | 282° |
| 2026-05-06 13:25 | 52.71582 | -16.89077 | 36038 ft | 471 kts | 282° |
| 2026-05-06 13:25 | 52.72704 | -16.99787 | 36048 ft | 471 kts | 282° |
| 2026-05-06 13:26 | 52.73809 | -17.10444 | 36044 ft | 471 kts | 281° |
| 2026-05-06 13:26 | 52.74897 | -17.21018 | 36040 ft | 471 kts | 281° |
| 2026-05-06 13:27 | 52.75991 | -17.31737 | 36039 ft | 470 kts | 281° |
| 2026-05-06 13:27 | 52.77070 | -17.42387 | 36038 ft | 471 kts | 281° |
| 2026-05-06 13:28 | 52.78138 | -17.53045 | 36033 ft | 471 kts | 281° |
| 2026-05-06 13:28 | 52.79195 | -17.63726 | 36044 ft | 470 kts | 281° |
| 2026-05-06 13:29 | 52.80234 | -17.74323 | 36041 ft | 471 kts | 281° |
| 2026-05-06 13:29 | 52.81273 | -17.84998 | 36036 ft | 471 kts | 280° |
| 2026-05-06 13:30 | 52.82304 | -17.95696 | 36043 ft | 471 kts | 280° |
| 2026-05-06 13:30 | 52.83325 | -18.06383 | 36044 ft | 471 kts | 280° |
| 2026-05-06 13:31 | 52.84335 | -18.17076 | 36038 ft | 471 kts | 280° |
| 2026-05-06 13:31 | 52.85334 | -18.27777 | 36028 ft | 471 kts | 279° |
| 2026-05-06 13:32 | 52.86325 | -18.38501 | 36039 ft | 471 kts | 279° |
| 2026-05-06 13:32 | 52.87307 | -18.49214 | 36042 ft | 471 kts | 279° |
| 2026-05-06 13:33 | 52.88282 | -18.59936 | 36037 ft | 471 kts | 279° |
| 2026-05-06 13:33 | 52.89248 | -18.70684 | 36040 ft | 471 kts | 279° |
| 2026-05-06 13:34 | 52.90201 | -18.81423 | 36041 ft | 472 kts | 279° |
| 2026-05-06 13:34 | 52.91143 | -18.92169 | 36038 ft | 472 kts | 279° |
| 2026-05-06 13:35 | 52.92077 | -19.02920 | 36030 ft | 472 kts | 278° |
| 2026-05-06 13:35 | 52.93004 | -19.13696 | 36030 ft | 472 kts | 278° |
| 2026-05-06 13:36 | 52.93921 | -19.24461 | 36040 ft | 472 kts | 278° |
| 2026-05-06 13:36 | 52.94825 | -19.35181 | 36042 ft | 472 kts | 278° |
| 2026-05-06 13:37 | 52.95720 | -19.45963 | 36039 ft | 472 kts | 278° |
| 2026-05-06 13:37 | 52.96605 | -19.56749 | 36024 ft | 472 kts | 278° |
| 2026-05-06 13:38 | 52.97481 | -19.67540 | 36028 ft | 472 kts | 277° |
| 2026-05-06 13:38 | 52.98350 | -19.78340 | 36036 ft | 473 kts | 277° |
| 2026-05-06 13:39 | 52.99212 | -19.89165 | 36044 ft | 473 kts | 277° |
| 2026-05-06 13:39 | 53.00061 | -19.99980 | 36033 ft | 473 kts | 277° |
| 2026-05-06 13:40 | 53.00680 | -20.10843 | 36041 ft | 473 kts | 273° |
| 2026-05-06 13:40 | 53.01031 | -20.21753 | 36032 ft | 473 kts | 272° |
| 2026-05-06 13:41 | 53.01395 | -20.32665 | 36037 ft | 473 kts | 273° |
| 2026-05-06 13:41 | 53.01801 | -20.43576 | 36040 ft | 473 kts | 273° |
| 2026-05-06 13:42 | 53.02215 | -20.54405 | 36039 ft | 473 kts | 273° |
| 2026-05-06 13:42 | 53.02623 | -20.65300 | 36041 ft | 473 kts | 273° |
| 2026-05-06 13:43 | 53.03020 | -20.76203 | 36043 ft | 473 kts | 272° |
| 2026-05-06 13:43 | 53.03401 | -20.87108 | 36033 ft | 473 kts | 272° |
| 2026-05-06 13:44 | 53.03773 | -20.98037 | 36039 ft | 473 kts | 272° |
| 2026-05-06 13:44 | 53.04136 | -21.08953 | 36044 ft | 473 kts | 272° |
| 2026-05-06 13:45 | 53.04491 | -21.19872 | 36037 ft | 473 kts | 272° |
| 2026-05-06 13:45 | 53.05006 | -21.36267 | 36044 ft | 474 kts | 272° |
| 2026-05-06 13:46 | 53.05335 | -21.47196 | 36032 ft | 474 kts | 272° |
| 2026-05-06 13:46 | 53.05652 | -21.58147 | 36036 ft | 474 kts | 272° |
| 2026-05-06 13:47 | 53.05960 | -21.69085 | 36046 ft | 474 kts | 271° |
| 2026-05-06 13:47 | 53.06261 | -21.80040 | 36045 ft | 474 kts | 271° |
| 2026-05-06 13:48 | 53.06548 | -21.91006 | 36052 ft | 474 kts | 271° |
| 2026-05-06 13:48 | 53.06822 | -22.01952 | 36048 ft | 474 kts | 271° |
| 2026-05-06 13:49 | 53.07044 | -22.11060 | 36045 ft | 475 kts | 271° |
| 2026-05-06 13:49 | 53.07306 | -22.22116 | 36049 ft | 475 kts | 271° |
| 2026-05-06 13:50 | 53.07554 | -22.33023 | 36049 ft | 476 kts | 271° |
| 2026-05-06 13:50 | 53.07797 | -22.44030 | 36049 ft | 476 kts | 270° |
| 2026-05-06 13:51 | 53.08030 | -22.55111 | 36048 ft | 477 kts | 270° |
| 2026-05-06 13:51 | 53.08250 | -22.66129 | 36047 ft | 477 kts | 270° |
| 2026-05-06 13:52 | 53.08461 | -22.77157 | 36050 ft | 477 kts | 270° |
| 2026-05-06 13:52 | 53.08662 | -22.88141 | 36050 ft | 478 kts | 270° |
| 2026-05-06 13:53 | 53.08856 | -22.99189 | 36053 ft | 478 kts | 270° |
| 2026-05-06 13:53 | 53.09037 | -23.10263 | 36053 ft | 479 kts | 270° |
| 2026-05-06 13:54 | 53.09207 | -23.21329 | 36050 ft | 479 kts | 269° |
| 2026-05-06 13:54 | 53.09365 | -23.32402 | 36048 ft | 479 kts | 269° |
| 2026-05-06 13:55 | 53.09516 | -23.43500 | 36046 ft | 479 kts | 269° |
| 2026-05-06 13:55 | 53.09659 | -23.54604 | 36047 ft | 480 kts | 269° |
| 2026-05-06 13:56 | 53.09790 | -23.65700 | 36048 ft | 480 kts | 269° |
| 2026-05-06 13:56 | 53.09910 | -23.76803 | 36051 ft | 480 kts | 269° |
| 2026-05-06 13:57 | 53.10018 | -23.87914 | 36050 ft | 481 kts | 269° |
| 2026-05-06 13:57 | 53.10115 | -23.99048 | 36059 ft | 481 kts | 269° |
| 2026-05-06 13:58 | 53.10204 | -24.10167 | 36064 ft | 481 kts | 269° |
| 2026-05-06 13:58 | 53.10283 | -24.21292 | 36051 ft | 481 kts | 268° |
| 2026-05-06 13:59 | 53.10353 | -24.32363 | 36055 ft | 481 kts | 268° |
| 2026-05-06 13:59 | 53.10413 | -24.43566 | 36059 ft | 481 kts | 268° |
| 2026-05-06 14:00 | 53.10457 | -24.54690 | 36057 ft | 481 kts | 268° |
| 2026-05-06 14:00 | 53.10492 | -24.65760 | 36057 ft | 481 kts | 268° |
| 2026-05-06 14:01 | 53.10519 | -24.76884 | 36060 ft | 481 kts | 268° |
| 2026-05-06 14:01 | 53.10537 | -24.88005 | 36056 ft | 481 kts | 268° |
| 2026-05-06 14:02 | 53.10545 | -24.99142 | 36055 ft | 481 kts | 268° |
| 2026-05-06 14:02 | 53.10541 | -25.10259 | 36056 ft | 481 kts | 268° |
| 2026-05-06 14:03 | 53.10525 | -25.21376 | 36054 ft | 481 kts | 268° |
| 2026-05-06 14:03 | 53.10498 | -25.32494 | 36049 ft | 481 kts | 268° |
| 2026-05-06 14:04 | 53.10464 | -25.43632 | 36048 ft | 481 kts | 268° |
| 2026-05-06 14:04 | 53.10420 | -25.54753 | 36047 ft | 481 kts | 268° |
| 2026-05-06 14:05 | 53.10365 | -25.65875 | 36047 ft | 481 kts | 268° |
| 2026-05-06 14:05 | 53.10297 | -25.77014 | 36048 ft | 481 kts | 267° |
| 2026-05-06 14:06 | 53.10217 | -25.88133 | 36046 ft | 481 kts | 267° |
| 2026-05-06 14:06 | 53.10129 | -25.99251 | 36046 ft | 481 kts | 267° |
| 2026-05-06 14:07 | 53.10033 | -26.10386 | 36045 ft | 481 kts | 267° |
| 2026-05-06 14:07 | 53.09927 | -26.21499 | 36044 ft | 480 kts | 267° |
| 2026-05-06 14:08 | 53.09810 | -26.32611 | 36044 ft | 481 kts | 267° |
| 2026-05-06 14:08 | 53.09679 | -26.43739 | 36039 ft | 480 kts | 267° |
| 2026-05-06 14:09 | 53.09538 | -26.54775 | 36037 ft | 481 kts | 267° |
| 2026-05-06 14:09 | 53.09388 | -26.65885 | 36038 ft | 481 kts | 267° |
| 2026-05-06 14:10 | 53.09230 | -26.77014 | 36043 ft | 481 kts | 267° |
| 2026-05-06 14:10 | 53.09062 | -26.88142 | 36035 ft | 481 kts | 267° |
| 2026-05-06 14:11 | 53.08882 | -26.99248 | 36039 ft | 480 kts | 267° |
| 2026-05-06 14:11 | 53.08689 | -27.10350 | 36034 ft | 480 kts | 267° |
| 2026-05-06 14:12 | 53.08486 | -27.21453 | 36035 ft | 481 kts | 267° |
| 2026-05-06 14:12 | 53.08274 | -27.32577 | 36025 ft | 481 kts | 267° |
| 2026-05-06 14:13 | 53.08055 | -27.43681 | 36030 ft | 481 kts | 267° |
| 2026-05-06 14:13 | 53.07825 | -27.54782 | 36027 ft | 480 kts | 267° |
| 2026-05-06 14:14 | 53.07582 | -27.65880 | 36025 ft | 480 kts | 266° |
| 2026-05-06 14:14 | 53.07328 | -27.76926 | 36023 ft | 481 kts | 266° |
| 2026-05-06 14:15 | 53.07064 | -27.88029 | 36021 ft | 481 kts | 266° |
| 2026-05-06 14:15 | 53.06791 | -27.99134 | 36023 ft | 481 kts | 266° |
| 2026-05-06 14:16 | 53.06509 | -28.10239 | 36021 ft | 481 kts | 266° |
| 2026-05-06 14:16 | 53.06216 | -28.21362 | 36015 ft | 481 kts | 266° |
| 2026-05-06 14:17 | 53.05910 | -28.32466 | 36016 ft | 481 kts | 266° |
| 2026-05-06 14:17 | 53.05593 | -28.43589 | 36012 ft | 481 kts | 266° |
| 2026-05-06 14:18 | 53.05266 | -28.54696 | 36014 ft | 481 kts | 266° |
| 2026-05-06 14:18 | 53.04930 | -28.65805 | 36009 ft | 482 kts | 266° |
| 2026-05-06 14:19 | 53.04586 | -28.76917 | 36010 ft | 482 kts | 266° |
| 2026-05-06 14:19 | 53.04230 | -28.88046 | 36004 ft | 482 kts | 266° |
| 2026-05-06 14:20 | 53.03861 | -28.99155 | 36006 ft | 482 kts | 266° |
| 2026-05-06 14:20 | 53.03481 | -29.10268 | 36003 ft | 482 kts | 266° |
| 2026-05-06 14:21 | 53.03091 | -29.21384 | 36002 ft | 482 kts | 266° |
| 2026-05-06 14:21 | 53.02693 | -29.32517 | 36001 ft | 482 kts | 266° |
| 2026-05-06 14:22 | 53.02286 | -29.43630 | 35996 ft | 482 kts | 266° |
| 2026-05-06 14:22 | 53.01868 | -29.54741 | 35993 ft | 482 kts | 266° |
| 2026-05-06 14:23 | 53.01436 | -29.65850 | 35990 ft | 482 kts | 266° |
| 2026-05-06 14:23 | 53.00996 | -29.76904 | 35991 ft | 482 kts | 266° |
| 2026-05-06 14:24 | 53.00543 | -29.88085 | 35989 ft | 482 kts | 266° |
| 2026-05-06 14:24 | 53.00083 | -29.99190 | 35987 ft | 482 kts | 266° |
| 2026-05-06 14:25 | 52.99802 | -30.10270 | 35988 ft | 482 kts | 269° |
| 2026-05-06 14:25 | 52.99786 | -30.21397 | 35987 ft | 482 kts | 270° |
| 2026-05-06 14:26 | 52.99744 | -30.32529 | 35991 ft | 482 kts | 269° |
| 2026-05-06 14:26 | 52.99641 | -30.43679 | 35990 ft | 483 kts | 269° |
| 2026-05-06 14:27 | 52.99508 | -30.54809 | 35993 ft | 482 kts | 269° |
| 2026-05-06 14:27 | 52.99364 | -30.65924 | 35996 ft | 481 kts | 269° |
| 2026-05-06 14:28 | 52.99214 | -30.77032 | 35997 ft | 480 kts | 268° |
| 2026-05-06 14:28 | 52.99052 | -30.88103 | 36002 ft | 480 kts | 268° |
| 2026-05-06 14:29 | 52.98878 | -30.99170 | 36004 ft | 480 kts | 268° |
| 2026-05-06 14:29 | 52.98695 | -31.10237 | 36008 ft | 480 kts | 268° |
| 2026-05-06 14:30 | 52.98503 | -31.21323 | 36011 ft | 480 kts | 268° |
| 2026-05-06 14:30 | 52.98303 | -31.32389 | 36013 ft | 480 kts | 268° |
| 2026-05-06 14:31 | 52.98091 | -31.43469 | 36017 ft | 480 kts | 268° |
| 2026-05-06 14:31 | 52.97867 | -31.54529 | 36018 ft | 480 kts | 268° |
| 2026-05-06 14:32 | 52.97633 | -31.65591 | 36021 ft | 480 kts | 268° |
| 2026-05-06 14:32 | 52.97390 | -31.76601 | 36023 ft | 480 kts | 268° |
| 2026-05-06 14:33 | 52.97136 | -31.87689 | 36028 ft | 480 kts | 268° |
| 2026-05-06 14:33 | 52.96874 | -31.98763 | 36029 ft | 481 kts | 268° |
| 2026-05-06 14:34 | 52.96648 | -32.07976 | 36032 ft | 481 kts | 268° |
| 2026-05-06 14:34 | 52.96364 | -32.19054 | 36034 ft | 481 kts | 268° |
| 2026-05-06 14:35 | 52.96068 | -32.30137 | 36035 ft | 481 kts | 268° |
| 2026-05-06 14:35 | 52.95762 | -32.41224 | 36038 ft | 482 kts | 268° |
| 2026-05-06 14:36 | 52.95447 | -32.52331 | 36041 ft | 482 kts | 268° |
| 2026-05-06 14:36 | 52.95125 | -32.63421 | 36047 ft | 482 kts | 267° |
| 2026-05-06 14:37 | 52.94790 | -32.74509 | 36052 ft | 482 kts | 267° |
| 2026-05-06 14:37 | 52.94443 | -32.85597 | 36052 ft | 482 kts | 267° |
| 2026-05-06 14:38 | 52.94084 | -32.96708 | 36052 ft | 482 kts | 267° |
| 2026-05-06 14:38 | 52.93717 | -33.07787 | 36057 ft | 482 kts | 267° |
| 2026-05-06 14:39 | 52.93341 | -33.18869 | 36061 ft | 482 kts | 267° |
| 2026-05-06 14:39 | 52.92957 | -33.29950 | 36062 ft | 482 kts | 267° |
| 2026-05-06 14:40 | 52.92559 | -33.41052 | 36061 ft | 482 kts | 267° |
| 2026-05-06 14:40 | 52.92150 | -33.52132 | 36065 ft | 482 kts | 267° |
| 2026-05-06 14:41 | 52.91729 | -33.63234 | 36070 ft | 482 kts | 267° |
| 2026-05-06 14:41 | 52.91303 | -33.74247 | 36072 ft | 483 kts | 267° |
| 2026-05-06 14:42 | 52.90865 | -33.85338 | 36073 ft | 483 kts | 267° |
| 2026-05-06 14:42 | 52.90417 | -33.96432 | 36075 ft | 483 kts | 267° |
| 2026-05-06 14:43 | 52.89955 | -34.07546 | 36078 ft | 483 kts | 266° |
| 2026-05-06 14:43 | 52.89482 | -34.18646 | 36079 ft | 483 kts | 266° |
| 2026-05-06 14:44 | 52.88998 | -34.29766 | 36082 ft | 484 kts | 266° |
| 2026-05-06 14:45 | 52.88258 | -34.46403 | 36084 ft | 483 kts | 266° |
| 2026-05-06 14:45 | 52.87753 | -34.57512 | 36083 ft | 483 kts | 266° |
| 2026-05-06 14:46 | 52.87237 | -34.68593 | 36085 ft | 483 kts | 266° |
| 2026-05-06 14:46 | 52.86707 | -34.79667 | 36086 ft | 483 kts | 266° |
| 2026-05-06 14:47 | 52.86168 | -34.90734 | 36088 ft | 483 kts | 266° |
| 2026-05-06 14:47 | 52.85619 | -35.01814 | 36087 ft | 482 kts | 266° |
| 2026-05-06 14:48 | 52.85063 | -35.12869 | 36088 ft | 482 kts | 266° |
| 2026-05-06 14:48 | 52.84497 | -35.23917 | 36093 ft | 482 kts | 266° |
| 2026-05-06 14:49 | 52.83919 | -35.34956 | 36094 ft | 482 kts | 266° |
| 2026-05-06 14:49 | 52.83328 | -35.46007 | 36095 ft | 482 kts | 266° |
| 2026-05-06 14:50 | 52.82729 | -35.57031 | 36099 ft | 481 kts | 266° |
| 2026-05-06 14:50 | 52.82122 | -35.68046 | 36098 ft | 481 kts | 266° |
| 2026-05-06 14:51 | 52.81506 | -35.79074 | 36097 ft | 481 kts | 266° |
| 2026-05-06 14:51 | 52.80879 | -35.90087 | 36101 ft | 481 kts | 266° |
| 2026-05-06 14:52 | 52.80240 | -36.01072 | 36101 ft | 480 kts | 266° |
| 2026-05-06 14:52 | 52.79592 | -36.12051 | 36098 ft | 480 kts | 266° |
| 2026-05-06 14:53 | 52.78935 | -36.23023 | 36101 ft | 480 kts | 266° |
| 2026-05-06 14:53 | 52.78273 | -36.33932 | 36102 ft | 480 kts | 266° |
| 2026-05-06 14:54 | 52.77594 | -36.44958 | 36099 ft | 479 kts | 266° |
| 2026-05-06 14:54 | 52.76908 | -36.55902 | 36099 ft | 479 kts | 266° |
| 2026-05-06 14:55 | 52.76211 | -36.66837 | 36100 ft | 479 kts | 266° |
| 2026-05-06 14:55 | 52.75502 | -36.77783 | 36105 ft | 479 kts | 266° |
| 2026-05-06 14:56 | 52.74789 | -36.88649 | 36104 ft | 479 kts | 266° |
| 2026-05-06 14:56 | 52.74065 | -36.99569 | 36102 ft | 478 kts | 266° |
| 2026-05-06 14:57 | 52.73327 | -37.10538 | 36102 ft | 478 kts | 266° |
| 2026-05-06 14:57 | 52.72587 | -37.21377 | 36101 ft | 478 kts | 266° |
| 2026-05-06 14:58 | 52.71825 | -37.32336 | 36106 ft | 478 kts | 266° |
| 2026-05-06 14:58 | 52.71060 | -37.43215 | 36104 ft | 478 kts | 266° |
| 2026-05-06 14:59 | 52.70292 | -37.54015 | 36107 ft | 477 kts | 266° |
| 2026-05-06 14:59 | 52.69509 | -37.64898 | 36109 ft | 477 kts | 266° |
| 2026-05-06 15:00 | 52.68718 | -37.75753 | 36109 ft | 477 kts | 266° |
| 2026-05-06 15:00 | 52.67915 | -37.86594 | 36111 ft | 477 kts | 266° |
| 2026-05-06 15:01 | 52.67100 | -37.97442 | 36115 ft | 476 kts | 266° |
| 2026-05-06 15:01 | 52.66279 | -38.08260 | 36111 ft | 476 kts | 266° |
| 2026-05-06 15:02 | 52.65451 | -38.19061 | 36113 ft | 475 kts | 266° |
| 2026-05-06 15:02 | 52.64614 | -38.29863 | 36114 ft | 475 kts | 266° |
| 2026-05-06 15:03 | 52.63768 | -38.40635 | 36120 ft | 474 kts | 266° |
| 2026-05-06 15:03 | 52.62910 | -38.51393 | 36117 ft | 474 kts | 266° |
| 2026-05-06 15:04 | 52.62042 | -38.62139 | 36121 ft | 474 kts | 266° |
| 2026-05-06 15:04 | 52.61167 | -38.72869 | 36115 ft | 473 kts | 266° |
| 2026-05-06 15:05 | 52.60284 | -38.83602 | 36123 ft | 473 kts | 266° |
| 2026-05-06 15:05 | 52.59395 | -38.94301 | 36124 ft | 472 kts | 266° |
| 2026-05-06 15:06 | 52.58495 | -39.04982 | 36121 ft | 471 kts | 266° |
| 2026-05-06 15:06 | 52.57582 | -39.15665 | 36122 ft | 471 kts | 266° |
| 2026-05-06 15:07 | 52.56663 | -39.26312 | 36125 ft | 470 kts | 266° |
| 2026-05-06 15:07 | 52.55738 | -39.36940 | 36123 ft | 470 kts | 266° |
| 2026-05-06 15:08 | 52.54805 | -39.47568 | 36124 ft | 469 kts | 266° |
| 2026-05-06 15:08 | 52.53865 | -39.58160 | 36122 ft | 468 kts | 266° |
| 2026-05-06 15:09 | 52.52914 | -39.68728 | 36118 ft | 468 kts | 266° |
| 2026-05-06 15:09 | 52.51953 | -39.79272 | 36118 ft | 467 kts | 266° |
| 2026-05-06 15:10 | 52.50985 | -39.89811 | 36120 ft | 466 kts | 266° |
| 2026-05-06 15:10 | 52.49890 | -40.00236 | 36127 ft | 469 kts | 261° |
| 2026-05-06 15:11 | 52.48018 | -40.10519 | 36120 ft | 471 kts | 258° |
| 2026-05-06 15:11 | 52.45993 | -40.20754 | 36122 ft | 471 kts | 258° |
| 2026-05-06 15:12 | 52.43951 | -40.30928 | 36121 ft | 470 kts | 258° |
| 2026-05-06 15:12 | 52.41912 | -40.41104 | 36121 ft | 469 kts | 258° |
| 2026-05-06 15:13 | 52.39880 | -40.51239 | 36120 ft | 468 kts | 258° |
| 2026-05-06 15:13 | 52.37842 | -40.61366 | 36125 ft | 467 kts | 258° |
| 2026-05-06 15:14 | 52.35804 | -40.71446 | 36121 ft | 466 kts | 258° |
| 2026-05-06 15:14 | 52.33759 | -40.81498 | 36129 ft | 465 kts | 258° |
| 2026-05-06 15:15 | 52.31705 | -40.91530 | 36129 ft | 464 kts | 258° |
| 2026-05-06 15:15 | 52.29653 | -41.01505 | 36129 ft | 463 kts | 258° |
| 2026-05-06 15:16 | 52.27600 | -41.11439 | 36130 ft | 461 kts | 258° |
| 2026-05-06 15:16 | 52.25549 | -41.21333 | 36133 ft | 460 kts | 258° |
| 2026-05-06 15:17 | 52.23495 | -41.31184 | 36134 ft | 458 kts | 258° |
| 2026-05-06 15:17 | 52.21783 | -41.39352 | 36133 ft | 457 kts | 258° |
| 2026-05-06 15:18 | 52.19717 | -41.49166 | 36138 ft | 457 kts | 258° |
| 2026-05-06 15:18 | 52.17647 | -41.58949 | 36141 ft | 457 kts | 258° |
| 2026-05-06 15:19 | 52.15572 | -41.68720 | 36141 ft | 457 kts | 258° |
| 2026-05-06 15:19 | 52.13490 | -41.78480 | 36140 ft | 457 kts | 258° |
| 2026-05-06 15:20 | 52.11395 | -41.88246 | 36144 ft | 457 kts | 258° |
| 2026-05-06 15:20 | 52.09290 | -41.97991 | 36143 ft | 457 kts | 258° |
| 2026-05-06 15:21 | 52.07174 | -42.07743 | 36134 ft | 458 kts | 258° |
| 2026-05-06 15:21 | 52.05045 | -42.17517 | 36148 ft | 459 kts | 258° |
| 2026-05-06 15:22 | 52.02911 | -42.27283 | 36153 ft | 459 kts | 258° |
| 2026-05-06 15:22 | 52.00766 | -42.37054 | 36146 ft | 460 kts | 258° |
| 2026-05-06 15:23 | 51.98606 | -42.46844 | 36148 ft | 461 kts | 258° |
| 2026-05-06 15:23 | 51.96436 | -42.56617 | 36151 ft | 461 kts | 258° |
| 2026-05-06 15:24 | 51.94256 | -42.66385 | 36150 ft | 461 kts | 258° |
| 2026-05-06 15:24 | 51.92068 | -42.76151 | 36153 ft | 461 kts | 258° |
| 2026-05-06 15:25 | 51.89869 | -42.85930 | 36151 ft | 462 kts | 258° |
| 2026-05-06 15:25 | 51.87677 | -42.95640 | 36154 ft | 462 kts | 258° |
| 2026-05-06 15:26 | 51.85463 | -43.05391 | 36156 ft | 462 kts | 257° |
| 2026-05-06 15:26 | 51.83235 | -43.15147 | 36159 ft | 462 kts | 257° |
| 2026-05-06 15:27 | 51.81003 | -43.24878 | 36148 ft | 462 kts | 257° |
| 2026-05-06 15:27 | 51.78764 | -43.34600 | 36153 ft | 462 kts | 257° |
| 2026-05-06 15:28 | 51.76517 | -43.44328 | 36152 ft | 462 kts | 257° |
| 2026-05-06 15:28 | 51.74266 | -43.54022 | 36152 ft | 461 kts | 257° |
| 2026-05-06 15:29 | 51.72008 | -43.63694 | 36155 ft | 461 kts | 257° |
| 2026-05-06 15:29 | 51.69744 | -43.73341 | 36154 ft | 460 kts | 257° |
| 2026-05-06 15:30 | 51.67473 | -43.82980 | 36156 ft | 459 kts | 256° |
| 2026-05-06 15:30 | 51.65203 | -43.92578 | 36149 ft | 458 kts | 256° |
| 2026-05-06 15:31 | 51.62932 | -44.02147 | 36152 ft | 457 kts | 256° |
| 2026-05-06 15:31 | 51.60669 | -44.11633 | 36149 ft | 456 kts | 256° |
| 2026-05-06 15:32 | 51.57254 | -44.25852 | 36145 ft | 454 kts | 256° |
| 2026-05-06 15:32 | 51.54972 | -44.35304 | 36150 ft | 452 kts | 256° |
| 2026-05-06 15:33 | 51.52695 | -44.44702 | 36146 ft | 451 kts | 256° |
| 2026-05-06 15:33 | 51.50418 | -44.54068 | 36145 ft | 450 kts | 256° |
| 2026-05-06 15:34 | 51.48138 | -44.63408 | 36140 ft | 449 kts | 256° |
| 2026-05-06 15:34 | 51.45847 | -44.72737 | 36142 ft | 449 kts | 255° |
| 2026-05-06 15:35 | 51.43555 | -44.82028 | 36138 ft | 448 kts | 255° |
| 2026-05-06 15:35 | 51.41260 | -44.91297 | 36135 ft | 447 kts | 255° |
| 2026-05-06 15:36 | 51.38958 | -45.00564 | 36135 ft | 447 kts | 255° |
| 2026-05-06 15:36 | 51.36654 | -45.09805 | 36139 ft | 447 kts | 255° |
| 2026-05-06 15:37 | 51.34337 | -45.19054 | 36123 ft | 447 kts | 255° |
| 2026-05-06 15:37 | 51.32029 | -45.28218 | 36132 ft | 447 kts | 255° |
| 2026-05-06 15:38 | 51.29697 | -45.37437 | 36131 ft | 448 kts | 255° |
| 2026-05-06 15:38 | 51.27360 | -45.46648 | 36132 ft | 448 kts | 254° |
| 2026-05-06 15:39 | 51.25015 | -45.55860 | 36127 ft | 448 kts | 254° |
| 2026-05-06 15:39 | 51.22657 | -45.65088 | 36125 ft | 449 kts | 254° |
| 2026-05-06 15:40 | 51.20287 | -45.74316 | 36126 ft | 449 kts | 254° |
| 2026-05-06 15:40 | 51.17909 | -45.83529 | 36126 ft | 450 kts | 253° |
| 2026-05-06 15:41 | 51.15522 | -45.92744 | 36124 ft | 450 kts | 253° |
| 2026-05-06 15:41 | 51.13121 | -46.01974 | 36121 ft | 451 kts | 253° |
| 2026-05-06 15:42 | 51.10717 | -46.11186 | 36119 ft | 451 kts | 253° |
| 2026-05-06 15:42 | 51.08303 | -46.20394 | 36119 ft | 451 kts | 253° |
| 2026-05-06 15:43 | 51.05879 | -46.29598 | 36116 ft | 452 kts | 253° |
| 2026-05-06 15:43 | 51.03458 | -46.38751 | 36114 ft | 452 kts | 253° |
| 2026-05-06 15:44 | 51.01017 | -46.47945 | 36114 ft | 452 kts | 252° |
| 2026-05-06 15:44 | 50.98555 | -46.57194 | 36115 ft | 452 kts | 252° |
| 2026-05-06 15:45 | 50.96118 | -46.66313 | 36115 ft | 452 kts | 252° |
| 2026-05-06 15:45 | 50.93652 | -46.75499 | 36112 ft | 452 kts | 252° |
| 2026-05-06 15:46 | 50.91180 | -46.84660 | 36109 ft | 452 kts | 252° |
| 2026-05-06 15:46 | 50.88701 | -46.93810 | 36112 ft | 452 kts | 252° |
| 2026-05-06 15:47 | 50.86214 | -47.02962 | 36108 ft | 452 kts | 252° |
| 2026-05-06 15:47 | 50.83727 | -47.12085 | 36107 ft | 452 kts | 251° |
| 2026-05-06 15:48 | 50.81235 | -47.21191 | 36117 ft | 451 kts | 251° |
| 2026-05-06 15:48 | 50.78735 | -47.30278 | 36112 ft | 451 kts | 251° |
| 2026-05-06 15:49 | 50.76226 | -47.39362 | 36114 ft | 450 kts | 251° |
| 2026-05-06 15:49 | 50.73717 | -47.48412 | 36111 ft | 450 kts | 251° |
| 2026-05-06 15:50 | 50.71205 | -47.57445 | 36108 ft | 449 kts | 251° |
| 2026-05-06 15:50 | 50.68691 | -47.66459 | 36112 ft | 449 kts | 251° |
| 2026-05-06 15:51 | 50.66183 | -47.75408 | 36108 ft | 448 kts | 251° |
| 2026-05-06 15:51 | 50.63657 | -47.84381 | 36113 ft | 448 kts | 250° |
| 2026-05-06 15:52 | 50.61126 | -47.93335 | 36110 ft | 448 kts | 250° |
| 2026-05-06 15:52 | 50.58591 | -48.02275 | 36113 ft | 447 kts | 250° |
| 2026-05-06 15:53 | 50.56047 | -48.11214 | 36113 ft | 447 kts | 250° |
| 2026-05-06 15:53 | 50.53505 | -48.20125 | 36106 ft | 447 kts | 250° |
| 2026-05-06 15:54 | 50.50955 | -48.29019 | 36108 ft | 446 kts | 249° |
| 2026-05-06 15:54 | 50.48398 | -48.37895 | 36109 ft | 446 kts | 249° |
| 2026-05-06 15:55 | 50.45831 | -48.46774 | 36112 ft | 446 kts | 249° |
| 2026-05-06 15:55 | 50.43264 | -48.55628 | 36109 ft | 446 kts | 249° |
| 2026-05-06 15:56 | 50.40688 | -48.64486 | 36109 ft | 446 kts | 249° |
| 2026-05-06 15:56 | 50.38110 | -48.73319 | 36110 ft | 446 kts | 249° |
| 2026-05-06 15:57 | 50.35525 | -48.82140 | 36109 ft | 446 kts | 249° |
| 2026-05-06 15:57 | 50.32930 | -48.90948 | 36110 ft | 446 kts | 248° |
| 2026-05-06 15:58 | 50.30326 | -48.99760 | 36110 ft | 446 kts | 248° |
| 2026-05-06 15:58 | 50.27723 | -49.08547 | 36110 ft | 445 kts | 248° |
| 2026-05-06 15:59 | 50.25114 | -49.17325 | 36111 ft | 445 kts | 248° |
| 2026-05-06 15:59 | 50.22495 | -49.26105 | 36113 ft | 445 kts | 248° |
| 2026-05-06 16:00 | 50.19871 | -49.34856 | 36110 ft | 445 kts | 248° |
| 2026-05-06 16:00 | 50.17240 | -49.43593 | 36109 ft | 445 kts | 248° |
| 2026-05-06 16:01 | 50.14620 | -49.52274 | 36108 ft | 445 kts | 248° |
| 2026-05-06 16:01 | 50.11982 | -49.60991 | 36109 ft | 445 kts | 247° |
| 2026-05-06 16:02 | 50.09339 | -49.69689 | 36110 ft | 444 kts | 247° |
| 2026-05-06 16:02 | 50.06672 | -49.78434 | 36111 ft | 444 kts | 247° |
| 2026-05-06 16:03 | 50.04460 | -49.85657 | 36110 ft | 445 kts | 247° |
| 2026-05-06 16:03 | 50.01357 | -49.95749 | 36112 ft | 445 kts | 247° |
| 2026-05-06 16:04 | 49.98950 | -50.04585 | 36108 ft | 444 kts | 251° |
| 2026-05-06 16:04 | 49.97126 | -50.12107 | 36107 ft | 444 kts | 251° |
| 2026-05-06 16:05 | 49.94986 | -50.21046 | 36104 ft | 444 kts | 251° |
| 2026-05-06 16:05 | 49.92825 | -50.30029 | 36105 ft | 444 kts | 251° |
| 2026-05-06 16:06 | 49.90651 | -50.38999 | 36105 ft | 444 kts | 251° |
| 2026-05-06 16:06 | 49.88466 | -50.47963 | 36103 ft | 444 kts | 251° |
| 2026-05-06 16:07 | 49.86261 | -50.56968 | 36101 ft | 444 kts | 251° |
| 2026-05-06 16:07 | 49.84073 | -50.65871 | 36103 ft | 445 kts | 251° |
| 2026-05-06 16:08 | 49.81866 | -50.74824 | 36102 ft | 445 kts | 250° |
| 2026-05-06 16:08 | 49.79638 | -50.83820 | 36097 ft | 445 kts | 250° |
| 2026-05-06 16:09 | 49.77428 | -50.92711 | 36094 ft | 445 kts | 250° |
| 2026-05-06 16:09 | 49.75183 | -51.01701 | 36101 ft | 445 kts | 250° |
| 2026-05-06 16:10 | 49.72944 | -51.10625 | 36095 ft | 445 kts | 250° |
| 2026-05-06 16:10 | 49.70706 | -51.19516 | 36105 ft | 446 kts | 250° |
| 2026-05-06 16:11 | 49.68453 | -51.28433 | 36102 ft | 446 kts | 250° |
| 2026-05-06 16:11 | 49.66194 | -51.37347 | 36092 ft | 446 kts | 250° |
| 2026-05-06 16:12 | 49.63928 | -51.46254 | 36090 ft | 446 kts | 250° |
| 2026-05-06 16:12 | 49.61647 | -51.55168 | 36088 ft | 446 kts | 250° |
| 2026-05-06 16:13 | 49.59363 | -51.64060 | 36088 ft | 446 kts | 249° |
| 2026-05-06 16:13 | 49.57069 | -51.72959 | 36085 ft | 446 kts | 249° |
| 2026-05-06 16:14 | 49.54774 | -51.81836 | 36083 ft | 446 kts | 249° |
| 2026-05-06 16:14 | 49.52474 | -51.90705 | 36081 ft | 446 kts | 249° |
| 2026-05-06 16:15 | 49.50303 | -51.99637 | 36082 ft | 445 kts | 255° |
| 2026-05-06 16:15 | 49.49085 | -52.08979 | 36075 ft | 445 kts | 260° |
| 2026-05-06 16:16 | 49.48109 | -52.18379 | 36073 ft | 445 kts | 261° |
| 2026-05-06 16:16 | 49.47160 | -52.27720 | 36072 ft | 445 kts | 261° |
| 2026-05-06 16:17 | 49.46176 | -52.37180 | 36066 ft | 445 kts | 261° |
| 2026-05-06 16:17 | 49.45186 | -52.46514 | 36050 ft | 445 kts | 261° |
| 2026-05-06 16:18 | 49.44182 | -52.55887 | 36056 ft | 445 kts | 260° |
| 2026-05-06 16:18 | 49.43173 | -52.65253 | 36058 ft | 444 kts | 260° |
| 2026-05-06 16:19 | 49.42154 | -52.74610 | 36058 ft | 444 kts | 260° |
| 2026-05-06 16:19 | 49.41125 | -52.83974 | 36056 ft | 444 kts | 260° |
| 2026-05-06 16:20 | 49.40091 | -52.93322 | 36050 ft | 444 kts | 260° |
| 2026-05-06 16:20 | 49.39050 | -53.02674 | 36052 ft | 445 kts | 260° |
| 2026-05-06 16:21 | 49.38001 | -53.12022 | 36049 ft | 445 kts | 260° |
| 2026-05-06 16:21 | 49.36945 | -53.21369 | 36048 ft | 445 kts | 260° |
| 2026-05-06 16:22 | 49.35873 | -53.30786 | 36047 ft | 445 kts | 259° |
| 2026-05-06 16:22 | 49.34807 | -53.40076 | 36048 ft | 445 kts | 259° |
| 2026-05-06 16:23 | 49.33723 | -53.49432 | 36048 ft | 446 kts | 259° |
| 2026-05-06 16:23 | 49.32632 | -53.58783 | 36052 ft | 446 kts | 259° |
| 2026-05-06 16:24 | 49.31535 | -53.68139 | 36051 ft | 446 kts | 259° |
| 2026-05-06 16:24 | 49.30429 | -53.77497 | 36055 ft | 446 kts | 259° |
| 2026-05-06 16:25 | 49.29316 | -53.86852 | 36055 ft | 446 kts | 259° |
| 2026-05-06 16:25 | 49.28194 | -53.96202 | 36057 ft | 446 kts | 259° |
| 2026-05-06 16:26 | 49.27065 | -54.05548 | 36057 ft | 446 kts | 259° |
| 2026-05-06 16:26 | 49.25930 | -54.14878 | 36061 ft | 446 kts | 259° |
| 2026-05-06 16:27 | 49.24786 | -54.24215 | 36061 ft | 446 kts | 259° |
| 2026-05-06 16:27 | 49.23637 | -54.33539 | 36067 ft | 446 kts | 259° |
| 2026-05-06 16:28 | 49.22479 | -54.42861 | 36073 ft | 446 kts | 259° |
| 2026-05-06 16:28 | 49.21312 | -54.52184 | 36066 ft | 446 kts | 259° |
| 2026-05-06 16:29 | 49.20137 | -54.61510 | 36068 ft | 446 kts | 259° |
| 2026-05-06 16:29 | 49.18958 | -54.70818 | 36078 ft | 446 kts | 259° |
| 2026-05-06 16:30 | 49.17971 | -54.78566 | 36073 ft | 447 kts | 259° |
| 2026-05-06 16:30 | 49.16572 | -54.89447 | 36074 ft | 447 kts | 259° |
| 2026-05-06 16:31 | 49.15365 | -54.98767 | 36072 ft | 447 kts | 259° |
| 2026-05-06 16:31 | 49.14153 | -55.08068 | 36074 ft | 447 kts | 259° |
| 2026-05-06 16:32 | 49.12931 | -55.17381 | 36072 ft | 447 kts | 259° |
| 2026-05-06 16:32 | 49.11701 | -55.26699 | 36075 ft | 447 kts | 259° |
| 2026-05-06 16:33 | 49.10467 | -55.35980 | 36076 ft | 447 kts | 259° |
| 2026-05-06 16:34 | 49.08599 | -55.49918 | 36074 ft | 447 kts | 259° |
| 2026-05-06 16:34 | 49.07343 | -55.59213 | 36078 ft | 447 kts | 259° |
| 2026-05-06 16:35 | 49.06083 | -55.68478 | 36071 ft | 447 kts | 259° |
| 2026-05-06 16:35 | 49.04812 | -55.77759 | 36079 ft | 447 kts | 259° |
| 2026-05-06 16:36 | 49.03537 | -55.87014 | 36069 ft | 447 kts | 259° |
| 2026-05-06 16:36 | 49.02256 | -55.96279 | 36074 ft | 447 kts | 259° |
| 2026-05-06 16:37 | 49.00965 | -56.05536 | 36076 ft | 446 kts | 259° |
| 2026-05-06 16:37 | 48.99669 | -56.14780 | 36077 ft | 446 kts | 259° |
| 2026-05-06 16:38 | 48.98365 | -56.24016 | 36078 ft | 446 kts | 259° |
| 2026-05-06 16:38 | 48.97054 | -56.33234 | 36061 ft | 446 kts | 259° |
| 2026-05-06 16:39 | 48.95735 | -56.42451 | 36057 ft | 446 kts | 259° |
| 2026-05-06 16:39 | 48.94412 | -56.51654 | 36057 ft | 445 kts | 259° |
| 2026-05-06 16:40 | 48.93080 | -56.60855 | 36053 ft | 445 kts | 259° |
| 2026-05-06 16:40 | 48.91748 | -56.70009 | 36054 ft | 445 kts | 259° |
| 2026-05-06 16:41 | 48.90407 | -56.79186 | 36049 ft | 445 kts | 259° |
| 2026-05-06 16:41 | 48.89054 | -56.88374 | 36046 ft | 445 kts | 259° |
| 2026-05-06 16:42 | 48.87699 | -56.97534 | 36044 ft | 445 kts | 259° |
| 2026-05-06 16:42 | 48.86334 | -57.06688 | 36045 ft | 444 kts | 259° |
| 2026-05-06 16:43 | 48.84961 | -57.15847 | 36047 ft | 444 kts | 259° |
| 2026-05-06 16:43 | 48.83584 | -57.24974 | 36059 ft | 444 kts | 259° |
| 2026-05-06 16:44 | 48.82199 | -57.34105 | 36060 ft | 443 kts | 259° |
| 2026-05-06 16:44 | 48.80810 | -57.43221 | 36065 ft | 443 kts | 259° |
| 2026-05-06 16:45 | 48.79415 | -57.52323 | 36058 ft | 442 kts | 259° |
| 2026-05-06 16:45 | 48.78249 | -57.59875 | 36066 ft | 442 kts | 259° |
| 2026-05-06 16:46 | 48.76844 | -57.68929 | 36055 ft | 442 kts | 259° |
| 2026-05-06 16:46 | 48.75432 | -57.77994 | 36059 ft | 441 kts | 259° |
| 2026-05-06 16:47 | 48.74019 | -57.87025 | 36057 ft | 440 kts | 259° |
| 2026-05-06 16:47 | 48.72598 | -57.96038 | 36056 ft | 440 kts | 259° |
| 2026-05-06 16:48 | 48.71168 | -58.05035 | 36053 ft | 439 kts | 259° |
| 2026-05-06 16:48 | 48.69737 | -58.14012 | 36053 ft | 438 kts | 259° |
| 2026-05-06 16:49 | 48.68303 | -58.22975 | 36045 ft | 437 kts | 259° |
| 2026-05-06 16:49 | 48.66862 | -58.31922 | 36051 ft | 437 kts | 259° |
| 2026-05-06 16:50 | 48.65417 | -58.40847 | 36047 ft | 437 kts | 259° |
| 2026-05-06 16:50 | 48.63964 | -58.49773 | 36049 ft | 437 kts | 259° |
| 2026-05-06 16:51 | 48.62507 | -58.58676 | 36045 ft | 437 kts | 259° |
| 2026-05-06 16:51 | 48.61040 | -58.67588 | 36038 ft | 437 kts | 259° |
| 2026-05-06 16:52 | 48.59566 | -58.76495 | 36037 ft | 437 kts | 259° |
| 2026-05-06 16:52 | 48.58087 | -58.85393 | 36038 ft | 437 kts | 259° |
| 2026-05-06 16:53 | 48.56599 | -58.94294 | 36030 ft | 438 kts | 259° |
| 2026-05-06 16:53 | 48.55100 | -59.03211 | 36033 ft | 438 kts | 259° |
| 2026-05-06 16:54 | 48.53596 | -59.12130 | 36026 ft | 439 kts | 259° |
| 2026-05-06 16:54 | 48.52081 | -59.21068 | 36029 ft | 440 kts | 259° |
| 2026-05-06 16:55 | 48.50568 | -59.29939 | 36028 ft | 440 kts | 259° |
| 2026-05-06 16:55 | 48.49030 | -59.38890 | 36026 ft | 441 kts | 259° |
| 2026-05-06 16:56 | 48.47486 | -59.47833 | 36029 ft | 441 kts | 259° |
| 2026-05-06 16:56 | 48.45925 | -59.56840 | 36026 ft | 442 kts | 259° |
| 2026-05-06 16:57 | 48.44375 | -59.65743 | 36023 ft | 442 kts | 259° |
| 2026-05-06 16:57 | 48.42812 | -59.74689 | 36021 ft | 442 kts | 259° |
| 2026-05-06 16:58 | 48.41239 | -59.83629 | 36013 ft | 442 kts | 259° |
| 2026-05-06 16:58 | 48.39656 | -59.92578 | 36016 ft | 442 kts | 259° |
| 2026-05-06 16:59 | 48.38068 | -60.01505 | 36009 ft | 442 kts | 259° |
| 2026-05-06 16:59 | 48.36475 | -60.10424 | 36011 ft | 442 kts | 259° |
| 2026-05-06 17:00 | 48.34876 | -60.19336 | 35999 ft | 442 kts | 259° |
| 2026-05-06 17:00 | 48.33270 | -60.28258 | 36001 ft | 442 kts | 259° |
| 2026-05-06 17:01 | 48.31657 | -60.37159 | 35991 ft | 442 kts | 259° |
| 2026-05-06 17:01 | 48.30037 | -60.46048 | 36000 ft | 441 kts | 259° |
| 2026-05-06 17:02 | 48.28409 | -60.54935 | 35997 ft | 441 kts | 259° |
| 2026-05-06 17:02 | 48.26779 | -60.63795 | 35991 ft | 440 kts | 259° |
| 2026-05-06 17:03 | 48.25146 | -60.72644 | 35985 ft | 440 kts | 259° |
| 2026-05-06 17:03 | 48.23505 | -60.81493 | 35985 ft | 439 kts | 259° |
| 2026-05-06 17:04 | 48.21860 | -60.90309 | 35986 ft | 439 kts | 259° |
| 2026-05-06 17:04 | 48.20207 | -60.99120 | 35981 ft | 438 kts | 258° |
| 2026-05-06 17:05 | 48.18554 | -61.07899 | 35983 ft | 437 kts | 258° |
| 2026-05-06 17:05 | 48.16898 | -61.16658 | 35979 ft | 437 kts | 258° |
| 2026-05-06 17:06 | 48.15247 | -61.25354 | 35979 ft | 436 kts | 258° |
| 2026-05-06 17:06 | 48.13584 | -61.34075 | 35975 ft | 435 kts | 258° |
| 2026-05-06 17:07 | 48.11913 | -61.42779 | 35975 ft | 435 kts | 258° |
| 2026-05-06 17:07 | 48.10226 | -61.51528 | 35972 ft | 435 kts | 258° |
| 2026-05-06 17:08 | 48.08554 | -61.60164 | 35973 ft | 434 kts | 258° |
| 2026-05-06 17:08 | 48.06871 | -61.68829 | 35968 ft | 434 kts | 257° |
| 2026-05-06 17:09 | 48.05182 | -61.77481 | 35969 ft | 434 kts | 257° |
| 2026-05-06 17:09 | 48.03484 | -61.86134 | 35961 ft | 433 kts | 257° |
| 2026-05-06 17:10 | 48.01780 | -61.94759 | 35960 ft | 433 kts | 257° |
| 2026-05-06 17:10 | 48.00069 | -62.03390 | 35961 ft | 433 kts | 257° |
| 2026-05-06 17:11 | 47.98355 | -62.12011 | 35966 ft | 433 kts | 257° |
| 2026-05-06 17:11 | 47.96640 | -62.20613 | 35956 ft | 433 kts | 257° |
| 2026-05-06 17:12 | 47.94918 | -62.29209 | 35950 ft | 433 kts | 257° |
| 2026-05-06 17:12 | 47.93188 | -62.37796 | 35951 ft | 432 kts | 256° |
| 2026-05-06 17:13 | 47.91457 | -62.46332 | 35950 ft | 432 kts | 256° |
| 2026-05-06 17:13 | 47.89703 | -62.54956 | 35945 ft | 432 kts | 256° |
| 2026-05-06 17:14 | 47.87957 | -62.63522 | 35937 ft | 432 kts | 256° |
| 2026-05-06 17:14 | 47.86212 | -62.72039 | 35936 ft | 432 kts | 256° |
| 2026-05-06 17:15 | 47.84449 | -62.80587 | 35935 ft | 432 kts | 256° |
| 2026-05-06 17:15 | 47.82681 | -62.89128 | 35935 ft | 432 kts | 256° |
| 2026-05-06 17:16 | 47.80909 | -62.97668 | 35931 ft | 432 kts | 256° |
| 2026-05-06 17:16 | 47.79133 | -63.06192 | 35929 ft | 431 kts | 255° |
| 2026-05-06 17:17 | 47.77351 | -63.14713 | 35929 ft | 431 kts | 255° |
| 2026-05-06 17:17 | 47.75566 | -63.23202 | 35925 ft | 430 kts | 255° |
| 2026-05-06 17:18 | 47.73773 | -63.31679 | 35928 ft | 430 kts | 255° |
| 2026-05-06 17:18 | 47.71975 | -63.40158 | 35922 ft | 430 kts | 255° |
| 2026-05-06 17:19 | 47.70177 | -63.48609 | 35926 ft | 429 kts | 255° |
| 2026-05-06 17:19 | 47.68371 | -63.57046 | 35916 ft | 429 kts | 255° |
| 2026-05-06 17:20 | 47.66561 | -63.65468 | 35911 ft | 428 kts | 255° |
| 2026-05-06 17:20 | 47.64744 | -63.73890 | 35917 ft | 428 kts | 254° |
| 2026-05-06 17:21 | 47.62929 | -63.82284 | 35916 ft | 427 kts | 254° |
| 2026-05-06 17:21 | 47.61110 | -63.90662 | 35915 ft | 427 kts | 254° |
| 2026-05-06 17:22 | 47.59286 | -63.99023 | 35912 ft | 426 kts | 254° |
| 2026-05-06 17:22 | 47.57461 | -64.07366 | 35813 ft | 421 kts | 252° |
| 2026-05-06 17:22 | 47.56562 | -64.11465 | 35916 ft | 418 kts | 252° |
| 2026-05-06 17:23 | 47.55661 | -64.15550 | 35918 ft | 416 kts | 252° |
| 2026-05-06 17:23 | 47.53862 | -64.23678 | 35920 ft | 415 kts | 252° |
| 2026-05-06 17:24 | 47.52064 | -64.31793 | 35900 ft | 415 kts | 252° |
| 2026-05-06 17:24 | 47.50260 | -64.39910 | 35903 ft | 415 kts | 252° |
| 2026-05-06 17:25 | 47.48453 | -64.47997 | 35898 ft | 414 kts | 252° |
| 2026-05-06 17:25 | 47.46648 | -64.56038 | 35893 ft | 414 kts | 252° |
| 2026-05-06 17:26 | 47.44833 | -64.64097 | 35896 ft | 413 kts | 252° |
| 2026-05-06 17:26 | 47.43014 | -64.72156 | 35893 ft | 413 kts | 252° |
| 2026-05-06 17:27 | 47.41191 | -64.80188 | 35907 ft | 413 kts | 251° |
| 2026-05-06 17:27 | 47.39361 | -64.88214 | 35893 ft | 413 kts | 251° |
| 2026-05-06 17:28 | 47.37528 | -64.96229 | 35894 ft | 412 kts | 251° |
| 2026-05-06 17:28 | 47.35690 | -65.04240 | 35896 ft | 412 kts | 251° |
| 2026-05-06 17:29 | 47.34147 | -65.10945 | 35898 ft | 412 kts | 251° |
| 2026-05-06 17:29 | 47.32302 | -65.18934 | 35904 ft | 411 kts | 251° |
| 2026-05-06 17:30 | 47.30463 | -65.26867 | 35906 ft | 411 kts | 251° |
| 2026-05-06 17:30 | 47.28611 | -65.34819 | 35908 ft | 411 kts | 251° |
| 2026-05-06 17:31 | 47.26750 | -65.42782 | 35912 ft | 411 kts | 251° |
| 2026-05-06 17:31 | 47.24888 | -65.50725 | 35911 ft | 410 kts | 251° |
| 2026-05-06 17:32 | 47.23023 | -65.58664 | 35915 ft | 410 kts | 251° |
| 2026-05-06 17:32 | 47.21142 | -65.66637 | 35912 ft | 410 kts | 251° |
| 2026-05-06 17:33 | 47.19265 | -65.74556 | 35912 ft | 410 kts | 250° |
| 2026-05-06 17:33 | 47.17384 | -65.82470 | 35911 ft | 410 kts | 250° |
| 2026-05-06 17:34 | 47.15498 | -65.90363 | 35909 ft | 409 kts | 250° |
| 2026-05-06 17:34 | 47.13605 | -65.98262 | 35902 ft | 409 kts | 250° |
| 2026-05-06 17:35 | 47.11713 | -66.06139 | 35900 ft | 409 kts | 250° |
| 2026-05-06 17:35 | 47.09813 | -66.14016 | 35901 ft | 409 kts | 250° |
| 2026-05-06 17:36 | 47.06956 | -66.25795 | 35895 ft | 409 kts | 250° |
| 2026-05-06 17:36 | 47.05044 | -66.33655 | 35894 ft | 408 kts | 250° |
| 2026-05-06 17:37 | 47.03133 | -66.41486 | 35889 ft | 408 kts | 250° |
| 2026-05-06 17:37 | 47.01189 | -66.49299 | 35887 ft | 408 kts | 247° |
| 2026-05-06 17:38 | 46.99814 | -66.52939 | 35887 ft | 409 kts | 236° |
| 2026-05-06 17:38 | 46.97923 | -66.56056 | 35893 ft | 413 kts | 225° |
| 2026-05-06 17:38 | 46.93512 | -66.61417 | 35891 ft | 414 kts | 224° |
| 2026-05-06 17:39 | 46.89044 | -66.66802 | 35893 ft | 414 kts | 224° |
| 2026-05-06 17:39 | 46.84601 | -66.72160 | 35892 ft | 414 kts | 224° |
| 2026-05-06 17:40 | 46.80182 | -66.77491 | 35895 ft | 414 kts | 224° |
| 2026-05-06 17:40 | 46.75733 | -66.82859 | 35894 ft | 414 kts | 224° |
| 2026-05-06 17:41 | 46.71295 | -66.88211 | 35894 ft | 414 kts | 224° |
| 2026-05-06 17:41 | 46.66860 | -66.93562 | 35915 ft | 414 kts | 224° |
| 2026-05-06 17:42 | 46.62424 | -66.98914 | 35908 ft | 414 kts | 224° |
| 2026-05-06 17:42 | 46.57994 | -67.04260 | 35912 ft | 414 kts | 224° |
| 2026-05-06 17:43 | 46.53560 | -67.09612 | 35910 ft | 414 kts | 224° |
| 2026-05-06 17:43 | 46.49133 | -67.14950 | 35900 ft | 414 kts | 224° |
| 2026-05-06 17:44 | 46.44705 | -67.20290 | 35892 ft | 414 kts | 224° |
| 2026-05-06 17:44 | 46.40272 | -67.25632 | 35895 ft | 414 kts | 224° |
| 2026-05-06 17:45 | 46.35843 | -67.30970 | 35894 ft | 414 kts | 224° |
| 2026-05-06 17:45 | 46.31415 | -67.36308 | 35892 ft | 415 kts | 224° |
| 2026-05-06 17:46 | 46.26982 | -67.41654 | 35880 ft | 415 kts | 224° |
| 2026-05-06 17:46 | 46.22554 | -67.47000 | 35873 ft | 415 kts | 224° |
| 2026-05-06 17:47 | 46.18132 | -67.52344 | 35859 ft | 415 kts | 224° |
| 2026-05-06 17:47 | 46.13741 | -67.57657 | 35851 ft | 414 kts | 224° |
| 2026-05-06 17:48 | 46.09292 | -67.63045 | 35846 ft | 414 kts | 224° |
| 2026-05-06 17:48 | 46.04915 | -67.68352 | 35845 ft | 414 kts | 224° |
| 2026-05-06 17:49 | 46.00476 | -67.73745 | 35847 ft | 414 kts | 224° |
| 2026-05-06 17:49 | 45.96111 | -67.79060 | 35852 ft | 414 kts | 224° |
| 2026-05-06 17:50 | 45.91724 | -67.84410 | 35853 ft | 414 kts | 224° |
| 2026-05-06 17:50 | 45.87311 | -67.89801 | 35862 ft | 414 kts | 224° |
| 2026-05-06 17:51 | 45.82937 | -67.95157 | 35865 ft | 413 kts | 224° |
| 2026-05-06 17:51 | 45.78592 | -68.00489 | 35870 ft | 413 kts | 224° |
| 2026-05-06 17:52 | 45.74231 | -68.05852 | 35870 ft | 413 kts | 224° |
| 2026-05-06 17:52 | 45.69879 | -68.11220 | 35869 ft | 413 kts | 224° |
| 2026-05-06 17:53 | 45.65530 | -68.16591 | 35862 ft | 413 kts | 224° |
| 2026-05-06 17:53 | 45.61182 | -68.21977 | 35861 ft | 413 kts | 224° |
| 2026-05-06 17:54 | 45.56841 | -68.27360 | 35860 ft | 413 kts | 224° |
| 2026-05-06 17:54 | 45.52496 | -68.32756 | 35858 ft | 414 kts | 224° |
| 2026-05-06 17:55 | 45.48158 | -68.38146 | 35857 ft | 414 kts | 224° |
| 2026-05-06 17:55 | 45.43812 | -68.43543 | 35856 ft | 414 kts | 224° |
| 2026-05-06 17:56 | 45.39467 | -68.48937 | 35857 ft | 414 kts | 224° |
| 2026-05-06 17:56 | 45.35126 | -68.54321 | 35861 ft | 414 kts | 224° |
| 2026-05-06 17:57 | 45.30779 | -68.59709 | 35861 ft | 414 kts | 225° |
| 2026-05-06 17:57 | 45.26433 | -68.65092 | 35860 ft | 414 kts | 225° |
| 2026-05-06 17:58 | 45.22114 | -68.70435 | 35860 ft | 414 kts | 225° |
| 2026-05-06 17:58 | 45.17755 | -68.75826 | 35856 ft | 414 kts | 225° |
| 2026-05-06 17:59 | 45.13413 | -68.81198 | 35852 ft | 414 kts | 225° |
| 2026-05-06 17:59 | 45.09089 | -68.86567 | 35851 ft | 414 kts | 225° |
| 2026-05-06 18:00 | 45.04773 | -68.91940 | 35852 ft | 413 kts | 225° |
| 2026-05-06 18:00 | 45.00487 | -68.97294 | 35851 ft | 413 kts | 225° |
| 2026-05-06 18:01 | 44.96156 | -69.02722 | 35854 ft | 413 kts | 225° |
| 2026-05-06 18:01 | 44.91870 | -69.08109 | 35842 ft | 413 kts | 225° |
| 2026-05-06 18:02 | 44.87607 | -69.13479 | 35840 ft | 413 kts | 225° |
| 2026-05-06 18:02 | 44.83294 | -69.18922 | 35840 ft | 414 kts | 225° |
| 2026-05-06 18:03 | 44.79032 | -69.24310 | 35835 ft | 414 kts | 225° |
| 2026-05-06 18:03 | 44.74767 | -69.29757 | 35835 ft | 414 kts | 227° |
| 2026-05-06 18:04 | 44.71196 | -69.36036 | 35827 ft | 411 kts | 240° |
| 2026-05-06 18:04 | 44.68983 | -69.43416 | 35821 ft | 412 kts | 254° |
| 2026-05-06 18:05 | 44.68377 | -69.51521 | 35817 ft | 420 kts | 268° |
| 2026-05-06 18:05 | 44.69169 | -69.59644 | 35811 ft | 425 kts | 275° |
| 2026-05-06 18:06 | 44.70347 | -69.67798 | 35810 ft | 426 kts | 276° |
| 2026-05-06 18:06 | 44.71538 | -69.75995 | 35813 ft | 425 kts | 276° |
| 2026-05-06 18:07 | 44.72666 | -69.84157 | 35812 ft | 424 kts | 275° |
| 2026-05-06 18:07 | 44.73754 | -69.92250 | 35812 ft | 424 kts | 275° |
| 2026-05-06 18:08 | 44.74843 | -70.00416 | 35810 ft | 424 kts | 275° |
| 2026-05-06 18:08 | 44.75927 | -70.08571 | 35811 ft | 425 kts | 275° |
| 2026-05-06 18:09 | 44.77009 | -70.16742 | 35804 ft | 425 kts | 275° |
| 2026-05-06 18:09 | 44.77915 | -70.23609 | 35800 ft | 425 kts | 275° |
| 2026-05-06 18:10 | 44.78986 | -70.31792 | 35807 ft | 426 kts | 275° |
| 2026-05-06 18:10 | 44.80048 | -70.39959 | 35797 ft | 426 kts | 274° |
| 2026-05-06 18:11 | 44.81108 | -70.48160 | 35795 ft | 426 kts | 274° |
| 2026-05-06 18:11 | 44.82163 | -70.56357 | 35797 ft | 425 kts | 274° |
| 2026-05-06 18:12 | 44.83212 | -70.64560 | 35803 ft | 425 kts | 274° |
| 2026-05-06 18:12 | 44.84255 | -70.72762 | 35799 ft | 426 kts | 274° |
| 2026-05-06 18:13 | 44.85301 | -70.81028 | 35805 ft | 426 kts | 274° |
| 2026-05-06 18:13 | 44.86329 | -70.89216 | 35799 ft | 427 kts | 274° |
| 2026-05-06 18:14 | 44.87359 | -70.97464 | 35804 ft | 427 kts | 274° |
| 2026-05-06 18:14 | 44.88383 | -71.05708 | 35813 ft | 427 kts | 274° |
| 2026-05-06 18:15 | 44.89400 | -71.13960 | 35822 ft | 427 kts | 274° |
| 2026-05-06 18:15 | 44.90412 | -71.22225 | 35827 ft | 427 kts | 274° |
| 2026-05-06 18:16 | 44.91422 | -71.30498 | 35835 ft | 428 kts | 274° |
| 2026-05-06 18:16 | 44.92422 | -71.38772 | 35841 ft | 428 kts | 274° |
| 2026-05-06 18:17 | 44.93418 | -71.47048 | 35847 ft | 428 kts | 274° |
| 2026-05-06 18:17 | 44.94410 | -71.55349 | 35850 ft | 428 kts | 274° |
| 2026-05-06 18:18 | 44.95394 | -71.63649 | 35852 ft | 428 kts | 274° |
| 2026-05-06 18:18 | 44.96374 | -71.71957 | 35852 ft | 429 kts | 274° |
| 2026-05-06 18:19 | 44.97347 | -71.80268 | 35853 ft | 429 kts | 273° |
| 2026-05-06 18:19 | 44.98316 | -71.88587 | 35859 ft | 430 kts | 273° |
| 2026-05-06 18:20 | 44.99281 | -71.96921 | 35862 ft | 430 kts | 273° |
| 2026-05-06 18:20 | 45.00241 | -72.05272 | 35859 ft | 431 kts | 273° |
| 2026-05-06 18:21 | 45.01197 | -72.13638 | 35863 ft | 432 kts | 273° |
| 2026-05-06 18:21 | 45.02148 | -72.22026 | 35858 ft | 433 kts | 273° |
| 2026-05-06 18:22 | 45.03095 | -72.30441 | 35854 ft | 433 kts | 273° |
| 2026-05-06 18:22 | 45.04036 | -72.38862 | 35859 ft | 434 kts | 272° |
| 2026-05-06 18:23 | 45.04974 | -72.47301 | 35859 ft | 435 kts | 272° |
| 2026-05-06 18:23 | 45.05910 | -72.55769 | 35865 ft | 436 kts | 272° |
| 2026-05-06 18:24 | 45.06838 | -72.64241 | 35861 ft | 436 kts | 272° |
| 2026-05-06 18:24 | 45.07758 | -72.72690 | 35868 ft | 437 kts | 272° |
| 2026-05-06 18:25 | 45.08683 | -72.81249 | 35868 ft | 438 kts | 272° |
| 2026-05-06 18:25 | 45.09589 | -72.89717 | 35871 ft | 437 kts | 272° |
| 2026-05-06 18:26 | 45.10494 | -72.98229 | 35869 ft | 437 kts | 272° |
| 2026-05-06 18:26 | 45.11394 | -73.06748 | 35871 ft | 437 kts | 272° |
| 2026-05-06 18:27 | 45.12288 | -73.15258 | 35873 ft | 437 kts | 272° |
| 2026-05-06 18:27 | 45.13173 | -73.23751 | 35873 ft | 436 kts | 272° |
| 2026-05-06 18:28 | 45.14050 | -73.32261 | 35874 ft | 436 kts | 272° |
| 2026-05-06 18:28 | 45.14923 | -73.40768 | 35877 ft | 437 kts | 272° |
| 2026-05-06 18:29 | 45.15795 | -73.49354 | 35880 ft | 437 kts | 272° |
| 2026-05-06 18:29 | 45.16655 | -73.57864 | 35879 ft | 437 kts | 272° |
| 2026-05-06 18:30 | 45.17511 | -73.66382 | 35872 ft | 437 kts | 272° |
| 2026-05-06 18:30 | 45.18358 | -73.74910 | 35876 ft | 436 kts | 272° |
| 2026-05-06 18:31 | 45.19194 | -73.83418 | 35874 ft | 436 kts | 272° |
| 2026-05-06 18:31 | 45.20026 | -73.91934 | 35874 ft | 435 kts | 272° |
| 2026-05-06 18:32 | 45.20854 | -74.00435 | 35879 ft | 435 kts | 272° |
| 2026-05-06 18:32 | 45.21670 | -74.08923 | 35877 ft | 435 kts | 273° |
| 2026-05-06 18:33 | 45.22479 | -74.17373 | 35879 ft | 435 kts | 273° |
| 2026-05-06 18:33 | 45.23289 | -74.25920 | 35875 ft | 435 kts | 273° |
| 2026-05-06 18:34 | 45.24090 | -74.34431 | 35876 ft | 435 kts | 273° |
| 2026-05-06 18:34 | 45.24881 | -74.42924 | 35876 ft | 435 kts | 273° |
| 2026-05-06 18:35 | 45.25666 | -74.51427 | 35872 ft | 434 kts | 273° |
| 2026-05-06 18:35 | 45.26449 | -74.59941 | 35878 ft | 434 kts | 273° |
| 2026-05-06 18:36 | 45.27222 | -74.68440 | 35881 ft | 434 kts | 273° |
| 2026-05-06 18:36 | 45.27989 | -74.76939 | 35870 ft | 434 kts | 273° |
| 2026-05-06 18:37 | 45.28623 | -74.84008 | 35878 ft | 434 kts | 273° |
| 2026-05-06 18:37 | 45.29506 | -74.93947 | 35874 ft | 434 kts | 273° |
| 2026-05-06 18:38 | 45.30251 | -75.02436 | 35875 ft | 434 kts | 273° |
| 2026-05-06 18:38 | 45.30987 | -75.10885 | 35869 ft | 434 kts | 273° |
| 2026-05-06 18:39 | 45.31720 | -75.19387 | 35869 ft | 433 kts | 273° |
| 2026-05-06 18:40 | 45.32808 | -75.32140 | 35869 ft | 433 kts | 273° |
| 2026-05-06 18:40 | 45.33522 | -75.40593 | 35868 ft | 433 kts | 273° |
| 2026-05-06 18:41 | 45.34240 | -75.49141 | 35871 ft | 433 kts | 273° |
| 2026-05-06 18:41 | 45.34946 | -75.57634 | 35871 ft | 432 kts | 273° |
| 2026-05-06 18:42 | 45.35643 | -75.66120 | 35869 ft | 432 kts | 272° |
| 2026-05-06 18:42 | 45.36334 | -75.74603 | 35873 ft | 432 kts | 272° |
| 2026-05-06 18:43 | 45.37013 | -75.83040 | 35870 ft | 432 kts | 272° |
| 2026-05-06 18:43 | 45.37690 | -75.91516 | 35865 ft | 431 kts | 272° |
| 2026-05-06 18:44 | 45.38363 | -75.99996 | 35860 ft | 431 kts | 272° |
| 2026-05-06 18:44 | 45.39028 | -76.08463 | 35855 ft | 431 kts | 272° |
| 2026-05-06 18:45 | 45.39684 | -76.16934 | 35849 ft | 430 kts | 272° |
| 2026-05-06 18:45 | 45.39419 | -76.25316 | 35851 ft | 423 kts | 254° |
| 2026-05-06 18:46 | 45.37018 | -76.32887 | 35851 ft | 421 kts | 242° |
| 2026-05-06 18:46 | 45.34160 | -76.40169 | 35852 ft | 421 kts | 242° |
| 2026-05-06 18:47 | 45.31301 | -76.47436 | 35850 ft | 421 kts | 242° |
| 2026-05-06 18:47 | 45.28437 | -76.54710 | 35462 ft | 421 kts | 242° |
| 2026-05-06 18:47 | 45.27008 | -76.58330 | 35198 ft | 419 kts | 242° |
| 2026-05-06 18:48 | 45.25576 | -76.61953 | 34968 ft | 422 kts | 241° |
| 2026-05-06 18:48 | 45.24139 | -76.65582 | 34727 ft | 424 kts | 241° |
| 2026-05-06 18:48 | 45.23161 | -76.68049 | 34565 ft | 424 kts | 241° |
| 2026-05-06 18:48 | 45.21714 | -76.71700 | 34271 ft | 425 kts | 241° |
| 2026-05-06 18:49 | 45.20262 | -76.75354 | 34014 ft | 425 kts | 241° |
| 2026-05-06 18:49 | 45.18811 | -76.79003 | 33744 ft | 426 kts | 241° |
| 2026-05-06 18:49 | 45.17355 | -76.82658 | 33438 ft | 426 kts | 241° |
| 2026-05-06 18:49 | 45.15894 | -76.86319 | 33142 ft | 426 kts | 241° |
| 2026-05-06 18:50 | 45.14436 | -76.89969 | 32849 ft | 427 kts | 241° |
| 2026-05-06 18:50 | 45.12968 | -76.93642 | 32554 ft | 427 kts | 241° |
| 2026-05-06 18:50 | 45.11503 | -76.97302 | 32268 ft | 428 kts | 241° |
| 2026-05-06 18:50 | 45.10032 | -77.00970 | 31977 ft | 428 kts | 241° |
| 2026-05-06 18:51 | 45.08564 | -77.04628 | 31695 ft | 428 kts | 241° |
| 2026-05-06 18:51 | 45.07090 | -77.08294 | 31414 ft | 427 kts | 241° |
| 2026-05-06 18:51 | 45.05624 | -77.11934 | 31132 ft | 425 kts | 241° |
| 2026-05-06 18:51 | 45.04194 | -77.15481 | 30857 ft | 422 kts | 241° |
| 2026-05-06 18:52 | 45.02734 | -77.19097 | 30586 ft | 420 kts | 242° |
| 2026-05-06 18:52 | 45.01290 | -77.22671 | 30315 ft | 417 kts | 242° |
| 2026-05-06 18:52 | 44.99838 | -77.26261 | 30047 ft | 415 kts | 242° |
| 2026-05-06 18:52 | 44.98428 | -77.29746 | 29758 ft | 412 kts | 242° |
| 2026-05-06 18:53 | 44.97007 | -77.33253 | 29439 ft | 410 kts | 242° |
| 2026-05-06 18:53 | 44.95591 | -77.36740 | 29136 ft | 408 kts | 242° |
| 2026-05-06 18:53 | 44.94163 | -77.40256 | 28834 ft | 406 kts | 242° |
| 2026-05-06 18:53 | 44.92781 | -77.43654 | 28529 ft | 404 kts | 242° |
| 2026-05-06 18:54 | 44.91385 | -77.47080 | 28213 ft | 402 kts | 241° |
| 2026-05-06 18:54 | 44.89992 | -77.50492 | 27913 ft | 400 kts | 241° |
| 2026-05-06 18:54 | 44.88606 | -77.53888 | 27632 ft | 399 kts | 241° |
| 2026-05-06 18:54 | 44.87222 | -77.57270 | 27340 ft | 397 kts | 241° |
| 2026-05-06 18:55 | 44.85844 | -77.60633 | 27055 ft | 395 kts | 241° |
| 2026-05-06 18:55 | 44.84476 | -77.63972 | 26765 ft | 394 kts | 241° |
| 2026-05-06 18:55 | 44.83102 | -77.67317 | 26483 ft | 392 kts | 241° |
| 2026-05-06 18:55 | 44.81736 | -77.70642 | 26220 ft | 390 kts | 241° |
| 2026-05-06 18:56 | 44.80384 | -77.73928 | 25942 ft | 388 kts | 241° |
| 2026-05-06 18:56 | 44.79031 | -77.77213 | 25654 ft | 387 kts | 241° |
| 2026-05-06 18:56 | 44.77683 | -77.80481 | 25382 ft | 385 kts | 241° |
| 2026-05-06 18:56 | 44.76344 | -77.83723 | 25123 ft | 383 kts | 241° |
| 2026-05-06 18:57 | 44.75003 | -77.86965 | 24856 ft | 382 kts | 241° |
| 2026-05-06 18:57 | 44.73674 | -77.90177 | 24594 ft | 380 kts | 240° |
| 2026-05-06 18:57 | 44.72346 | -77.93384 | 24333 ft | 378 kts | 240° |
| 2026-05-06 18:57 | 44.71025 | -77.96567 | 24079 ft | 376 kts | 240° |
| 2026-05-06 18:58 | 44.69704 | -77.99750 | 23822 ft | 375 kts | 240° |
| 2026-05-06 18:58 | 44.68395 | -78.02899 | 23567 ft | 373 kts | 240° |
| 2026-05-06 18:58 | 44.67089 | -78.06036 | 23292 ft | 371 kts | 240° |
| 2026-05-06 18:58 | 44.65784 | -78.09168 | 23004 ft | 370 kts | 240° |
| 2026-05-06 18:59 | 44.64487 | -78.12279 | 22767 ft | 368 kts | 240° |
| 2026-05-06 18:59 | 44.63192 | -78.15381 | 22527 ft | 367 kts | 240° |
| 2026-05-06 18:59 | 44.61902 | -78.18468 | 22283 ft | 366 kts | 240° |
| 2026-05-06 18:59 | 44.60615 | -78.21546 | 22059 ft | 365 kts | 240° |
| 2026-05-06 19:00 | 44.59335 | -78.24601 | 21813 ft | 363 kts | 240° |
| 2026-05-06 19:00 | 44.58067 | -78.27625 | 21566 ft | 362 kts | 240° |
| 2026-05-06 19:00 | 44.56778 | -78.30699 | 21398 ft | 362 kts | 240° |
| 2026-05-06 19:00 | 44.55504 | -78.33729 | 21182 ft | 361 kts | 240° |
| 2026-05-06 19:01 | 44.54232 | -78.36753 | 20987 ft | 360 kts | 240° |
| 2026-05-06 19:01 | 44.52959 | -78.39775 | 20773 ft | 359 kts | 240° |
| 2026-05-06 19:01 | 44.51688 | -78.42789 | 20579 ft | 358 kts | 240° |
| 2026-05-06 19:01 | 44.50421 | -78.45789 | 20376 ft | 357 kts | 240° |
| 2026-05-06 19:02 | 44.49161 | -78.48773 | 20179 ft | 356 kts | 240° |
| 2026-05-06 19:02 | 44.47898 | -78.51761 | 19977 ft | 356 kts | 240° |
| 2026-05-06 19:02 | 44.46637 | -78.54743 | 19784 ft | 355 kts | 240° |
| 2026-05-06 19:02 | 44.45379 | -78.57713 | 19603 ft | 355 kts | 240° |
| 2026-05-06 19:03 | 44.44120 | -78.60679 | 19408 ft | 354 kts | 240° |
| 2026-05-06 19:03 | 44.42860 | -78.63646 | 19212 ft | 354 kts | 240° |
| 2026-05-06 19:03 | 44.41607 | -78.66593 | 19023 ft | 353 kts | 240° |
| 2026-05-06 19:03 | 44.40352 | -78.69542 | 18832 ft | 352 kts | 239° |
| 2026-05-06 19:04 | 44.39102 | -78.72475 | 18643 ft | 352 kts | 239° |
| 2026-05-06 19:04 | 44.37847 | -78.75417 | 18457 ft | 351 kts | 239° |
| 2026-05-06 19:04 | 44.36599 | -78.78340 | 18283 ft | 351 kts | 239° |
| 2026-05-06 19:04 | 44.35346 | -78.81273 | 18072 ft | 350 kts | 239° |
| 2026-05-06 19:05 | 44.34096 | -78.84196 | 17861 ft | 350 kts | 239° |
| 2026-05-06 19:05 | 44.32850 | -78.87103 | 17648 ft | 349 kts | 239° |
| 2026-05-06 19:05 | 44.31605 | -78.90007 | 17431 ft | 348 kts | 239° |
| 2026-05-06 19:05 | 44.30367 | -78.92891 | 17224 ft | 347 kts | 239° |
| 2026-05-06 19:06 | 44.29128 | -78.95776 | 17006 ft | 346 kts | 239° |
| 2026-05-06 19:06 | 44.27895 | -78.98646 | 16814 ft | 345 kts | 239° |
| 2026-05-06 19:06 | 44.26654 | -79.01507 | 16586 ft | 344 kts | 238° |
| 2026-05-06 19:06 | 44.25198 | -79.04141 | 16399 ft | 345 kts | 227° |
| 2026-05-06 19:07 | 44.23291 | -79.06177 | 16190 ft | 349 kts | 213° |
| 2026-05-06 19:07 | 44.21050 | -79.07538 | 15987 ft | 352 kts | 205° |
| 2026-05-06 19:07 | 44.18744 | -79.08681 | 15786 ft | 352 kts | 205° |
| 2026-05-06 19:07 | 44.16432 | -79.09826 | 15577 ft | 351 kts | 205° |
| 2026-05-06 19:08 | 44.14134 | -79.10974 | 15392 ft | 350 kts | 205° |
| 2026-05-06 19:08 | 44.11842 | -79.12125 | 15189 ft | 350 kts | 205° |
| 2026-05-06 19:08 | 44.09583 | -79.13260 | 14986 ft | 340 kts | 205° |
| 2026-05-06 19:08 | 44.07428 | -79.14339 | 14785 ft | 327 kts | 205° |
| 2026-05-06 19:09 | 44.05326 | -79.15395 | 14584 ft | 315 kts | 206° |
| 2026-05-06 19:09 | 44.03282 | -79.16424 | 14382 ft | 303 kts | 206° |
| 2026-05-06 19:09 | 44.01356 | -79.17405 | 14188 ft | 293 kts | 207° |
| 2026-05-06 19:09 | 43.99631 | -79.18712 | 13986 ft | 275 kts | 223° |
| 2026-05-06 19:10 | 43.98439 | -79.20679 | 13794 ft | 262 kts | 242° |
| 2026-05-06 19:10 | 43.97860 | -79.22932 | 13598 ft | 257 kts | 256° |
| 2026-05-06 19:10 | 43.97644 | -79.24415 | 13455 ft | 257 kts | 257° |
| 2026-05-06 19:10 | 43.97314 | -79.26855 | 13251 ft | 258 kts | 257° |
| 2026-05-06 19:11 | 43.96970 | -79.29299 | 13039 ft | 258 kts | 257° |
| 2026-05-06 19:11 | 43.96621 | -79.31742 | 12794 ft | 258 kts | 257° |
| 2026-05-06 19:11 | 43.96269 | -79.34183 | 12432 ft | 258 kts | 257° |
| 2026-05-06 19:11 | 43.95846 | -79.36589 | 12039 ft | 256 kts | 250° |
| 2026-05-06 19:12 | 43.94970 | -79.38723 | 11661 ft | 256 kts | 231° |
| 2026-05-06 19:12 | 43.93572 | -79.40262 | 11277 ft | 260 kts | 213° |
| 2026-05-06 19:12 | 43.91955 | -79.41403 | 10909 ft | 261 kts | 211° |
| 2026-05-06 19:12 | 43.90315 | -79.42504 | 10550 ft | 261 kts | 211° |
| 2026-05-06 19:13 | 43.88682 | -79.43615 | 10191 ft | 261 kts | 211° |
| 2026-05-06 19:13 | 43.87062 | -79.44726 | 9817 ft | 259 kts | 211° |
| 2026-05-06 19:13 | 43.85475 | -79.45815 | 9402 ft | 248 kts | 211° |
| 2026-05-06 19:13 | 43.83963 | -79.46851 | 8987 ft | 237 kts | 211° |
| 2026-05-06 19:14 | 43.82516 | -79.47844 | 8588 ft | 228 kts | 211° |
| 2026-05-06 19:14 | 43.81108 | -79.48816 | 8227 ft | 224 kts | 211° |
| 2026-05-06 19:14 | 43.79739 | -79.49760 | 8022 ft | 215 kts | 211° |
| 2026-05-06 19:14 | 43.78398 | -79.50685 | 8001 ft | 215 kts | 211° |
| 2026-05-06 19:15 | 43.77060 | -79.51614 | 8003 ft | 215 kts | 211° |
| 2026-05-06 19:15 | 43.75718 | -79.52540 | 8002 ft | 216 kts | 211° |
| 2026-05-06 19:15 | 43.74262 | -79.53203 | 8001 ft | 223 kts | 193° |
| 2026-05-06 19:15 | 43.72727 | -79.52878 | 8006 ft | 236 kts | 162° |
| 2026-05-06 19:16 | 43.71386 | -79.51510 | 8010 ft | 243 kts | 142° |
| 2026-05-06 19:16 | 43.70175 | -79.49877 | 8005 ft | 243 kts | 141° |
| 2026-05-06 19:16 | 43.68963 | -79.48242 | 8007 ft | 243 kts | 142° |
| 2026-05-06 19:16 | 43.67728 | -79.46602 | 7994 ft | 243 kts | 142° |
| 2026-05-06 19:17 | 43.66521 | -79.45018 | 7814 ft | 242 kts | 142° |
| 2026-05-06 19:17 | 43.65298 | -79.43419 | 7603 ft | 241 kts | 142° |
| 2026-05-06 19:17 | 43.64078 | -79.41830 | 7378 ft | 241 kts | 142° |
| 2026-05-06 19:17 | 43.62863 | -79.40251 | 7148 ft | 240 kts | 142° |
| 2026-05-06 19:18 | 43.61653 | -79.38681 | 6930 ft | 239 kts | 141° |
| 2026-05-06 19:18 | 43.60442 | -79.37111 | 6699 ft | 238 kts | 141° |
| 2026-05-06 19:18 | 43.59237 | -79.35551 | 6474 ft | 237 kts | 141° |
| 2026-05-06 19:18 | 43.58010 | -79.34036 | 6250 ft | 235 kts | 143° |
| 2026-05-06 19:19 | 43.56771 | -79.32575 | 6008 ft | 235 kts | 143° |
| 2026-05-06 19:19 | 43.55534 | -79.31115 | 5772 ft | 234 kts | 143° |
| 2026-05-06 19:19 | 43.54300 | -79.29657 | 5533 ft | 233 kts | 143° |
| 2026-05-06 19:19 | 43.53073 | -79.28195 | 5311 ft | 232 kts | 142° |
| 2026-05-06 19:20 | 43.51854 | -79.26738 | 5076 ft | 232 kts | 142° |
| 2026-05-06 19:20 | 43.50598 | -79.25345 | 4830 ft | 230 kts | 149° |
| 2026-05-06 19:20 | 43.49126 | -79.24638 | 4600 ft | 223 kts | 180° |
| 2026-05-06 19:20 | 43.47662 | -79.25080 | 4363 ft | 214 kts | 211° |
| 2026-05-06 19:21 | 43.46589 | -79.26434 | 4125 ft | 209 kts | 239° |
| 2026-05-06 19:21 | 43.46134 | -79.28296 | 3906 ft | 207 kts | 265° |
| 2026-05-06 19:21 | 43.46382 | -79.30237 | 3773 ft | 208 kts | 292° |
| 2026-05-06 19:21 | 43.47261 | -79.31815 | 3678 ft | 211 kts | 317° |
| 2026-05-06 19:22 | 43.48425 | -79.33058 | 3572 ft | 211 kts | 321° |
| 2026-05-06 19:22 | 43.49607 | -79.34257 | 3467 ft | 209 kts | 321° |
| 2026-05-06 19:22 | 43.50731 | -79.35414 | 3351 ft | 196 kts | 321° |
| 2026-05-06 19:22 | 43.51785 | -79.36516 | 3258 ft | 185 kts | 321° |
| 2026-05-06 19:23 | 43.52710 | -79.37683 | 3147 ft | 178 kts | 309° |
| 2026-05-06 19:23 | 43.53326 | -79.39147 | 3046 ft | 177 kts | 293° |
| 2026-05-06 19:23 | 43.53794 | -79.40708 | 3002 ft | 176 kts | 292° |
| 2026-05-06 19:23 | 43.54250 | -79.42277 | 3003 ft | 177 kts | 292° |
| 2026-05-06 19:24 | 43.54713 | -79.43846 | 3007 ft | 177 kts | 293° |
| 2026-05-06 19:24 | 43.55239 | -79.45384 | 3005 ft | 177 kts | 299° |
| 2026-05-06 19:24 | 43.55951 | -79.46769 | 3006 ft | 178 kts | 311° |
| 2026-05-06 19:24 | 43.56805 | -79.47946 | 2992 ft | 166 kts | 316° |
| 2026-05-06 19:25 | 43.57608 | -79.49013 | 3003 ft | 156 kts | 315° |
| 2026-05-06 19:25 | 43.58383 | -79.50058 | 2991 ft | 155 kts | 315° |
| 2026-05-06 19:25 | 43.59153 | -79.51114 | 2814 ft | 156 kts | 316° |
| 2026-05-06 19:25 | 43.59945 | -79.52139 | 2603 ft | 155 kts | 317° |
| 2026-05-06 19:26 | 43.60709 | -79.53133 | 2388 ft | 147 kts | 317° |
| 2026-05-06 19:26 | 43.61191 | -79.53766 | 2250 ft | 141 kts | 317° |
| 2026-05-06 19:26 | 43.62097 | -79.54951 | 1992 ft | 130 kts | 318° |
| 2026-05-06 19:26 | 43.62538 | -79.55527 | 1895 ft | 129 kts | 319° |
| 2026-05-06 19:27 | 43.63185 | -79.56371 | 1714 ft | 129 kts | 319° |
| 2026-05-06 19:27 | 43.63831 | -79.57215 | 1526 ft | 130 kts | 319° |
| 2026-05-06 19:27 | 43.64493 | -79.58081 | 1326 ft | 129 kts | 319° |
| 2026-05-06 19:27 | 43.65143 | -79.58929 | 1125 ft | 128 kts | 320° |
| 2026-05-06 19:28 | 43.65789 | -79.59775 | 951 ft | 127 kts | 321° |
| 2026-05-06 19:28 | 43.66429 | -79.60610 | 781 ft | 128 kts | 320° |
| 2026-05-06 19:28 | 43.67070 | -79.61450 | 625 ft | 125 kts | 320° |
| 2026-05-06 19:28 | 43.67666 | -79.62224 | 574 ft | 102 kts | 316° |
| 2026-05-06 19:29 | 43.68083 | -79.62763 | 573 ft | 64 kts | 316° |
| 2026-05-06 19:29 | 43.68323 | -79.63078 | 577 ft | 38 kts | 316° |
| 2026-05-06 19:29 | 43.68487 | -79.63279 | 576 ft | 28 kts | 334° |
| 2026-05-06 19:29 | 43.68618 | -79.63333 | 576 ft | 14 kts | 331° |
| 2026-05-06 19:30 | 43.68629 | -79.63338 | 578 ft | 4 kts | 340° |
| 2026-05-06 19:30 | 43.68697 | -79.63327 | 574 ft | 15 kts | 26° |
| 2026-05-06 19:30 | 43.68725 | -79.63219 | 573 ft | 6 kts | 120° |
| 2026-05-06 19:30 | 43.68686 | -79.63166 | 574 ft | 10 kts | 136° |
| 2026-05-06 19:31 | 43.68654 | -79.63066 | 572 ft | 15 kts | 82° |
| 2026-05-06 19:31 | 43.68605 | -79.62919 | 568 ft | 20 kts | 134° |
| 2026-05-06 19:31 | 43.68393 | -79.62642 | 576 ft | 16 kts | 137° |
| 2026-05-06 19:32 | 43.68309 | -79.62531 | 575 ft | 12 kts | 136° |
| 2026-05-06 19:32 | 43.68297 | -79.62516 | 574 ft | 4 kts | 136° |
| 2026-05-06 19:32 | 43.68267 | -79.62457 | 573 ft | 9 kts | 104° |
| 2026-05-06 19:32 | 43.68281 | -79.62373 | 571 ft | 10 kts | 97° |
| 2026-05-06 19:33 | 43.68249 | -79.62266 | 576 ft | 12 kts | 90° |
| 2026-05-06 19:33 | 43.68250 | -79.62180 | 567 ft | 6 kts | 89° |
| 2026-05-06 19:33 | 43.68251 | -79.62147 | 567 ft | 0 kts | 88° |